![]() |
![]() |
Daily Reports
[Select Refresh to Update]
Updated Automatically by Ambient Software's
Virtual Weather Station V14.01
NOAA Yearly Report
YEARLY CLIMATOLOGICAL SUMMARY FOR 2011
HEAT COOL
MEAN DEG DEG WIND SPEED DOM MEAN MEAN
MON TEMP HIGH DATE LOW DATE DAYS DAYS RAIN AVG HI DATE DIR BAROM HUM
---------------------------------------------------------------------------------------
1 9.7 18.5 13/1/11 -3.3 27/1/11 1713 0 42.80 6 44 21/1/11 NNE1012.35 63
2 11.0 16.6 3/2/11 4.7 2/2/11 281 0 1.02 4 28 2/2/11 NO1021.26 43
---------------------------------------------------------------------------------------
TOT 17.1 32.5 31/5/10 4.7 2/2/11 955 0-232.71 6 41 9/5/10 NNE1014.15 56
HEAT BASE: 65.0
COOL BASE: 65.0
NOAA Monthly Report
MONTHLY CLIMATOLOGICAL SUMMARY FOR 2/2011
HEAT COOL
MEAN DEG DEG WIND SPEED DOM MEAN MEAN
DAY TEMP HIGH TIME LOW TIME DAYS DAYS RAIN AVG HI TIME DIR BAROM HUM
---------------------------------------------------------------------------------------
1 8.1 9.7 8:217 7.0 23:32 10 0 0.00 5 22 19:46 ONO1014.83 44
2 18.2 32.5 16:00 4.7 8:11 785 0 0.00 7 41 13:13 ONO1012.39 58
3 10.8 16.6 15:58 5.8 7:31 54 0 1.02 3 18 16:31 ESE1020.31 37
4 11.3 16.3 13:44 7.4 7:24 54 0 0.00 4 17 14:04 SSO1025.04 53
5 12.0 16.3 14:43 8.9 6:44 53 0 0.00 4 17 8:13 NO1025.18 50
6 12.1 12.6 3:13 11.6 0:00 9 0 0.00 5 5 0:00 NO1022.99 34
---------------------------------------------------------------------------------------
TOT 11.0 16.6 3/2/11 4.7 2/2/11 965 0 1.02 4 28 2/2/11 NO1021.26 43
HEAT BASE: 65.0
COOL BASE: 65.0
Yearly Archive Report
Parameter Max Max Time Max Date Min Min Time Min Date Average Wind Direction 338 4:37 1/5/10 0 8:217 22 Wind Speed 41 13:13 9/5/10 0 0:00 0/0/00 6 Wind Gust 41 13:13 9/5/10 0 0:00 0/0/00 6 Raw Barometer 1027.00 0:37 18/5/10 514.00 10:25 0/0/11 1018.16 Total Rain 42.80 23:49 3/2/11 275.51 4:40 6/2/11 176.95 UV Index 7.0 14:00 2/5/10 0.0 8:217 1.1 Wind Chill 32.5 16:00 31/5/10 -2.0 6:17 2/2/11 16.3
Monthly Archive Report
Parameter Max Max Time Max Date Min Min Time Min Date Average Wind Direction 338 19:43 1/2/11 0 8:217 315 Wind Speed 28 13:58 2/2/11 0 20:14 1/2/11 4 Wind Gust 28 13:58 2/2/11 0 20:14 1/2/11 4 Raw Barometer 1027.00 10:42 4/2/11 514.00 10:25 0/0/11 1021.35 Total Rain 42.80 23:49 3/2/11 41.78 23:48 3/2/11 42.80 UV Index 0.0 8:217 0.0 8:217 0.0 Wind Chill 16.6 15:58 3/2/11 -2.0 6:17 2/2/11 10.6
Daily Archive Report
Parameter Max Max Time Min Min Time Average Wind Direction 315 0:00 315 0:00 315 Wind Speed 5 0:00 5 0:00 5 Wind Gust 5 0:00 5 0:00 5 Raw Barometer 1024.00 0:00 1022.00 1:56 1022.99 Total Rain 42.80 0:00 42.80 0:00 42.80 UV Index 0.0 0:00 0.0 0:00 0.0 Wind Chill 12.6 3:13 11.6 0:00 12.2
Daily Summary Report
Date
10/18/2009
10/18/2009
Date Wind Dir Hi Lo Wind Spd Hi Lo Wind Gust Hi Lo Raw Barom Hi Lo Tot Rain Hi Lo UV Hi Lo Wind Chill Hi Lo DailyRain Hi Lo 24HrRain Hi Lo
° ° ° km/hr km/hr km/hr km/hr km/hr km/hr hPa hPa hPa mm mm mm °C °C °C mm mm mm mm mm mm
10/18/2009 338 338 0 4 8 0 5 8 2 965.72 1011.00 1011.00 26.46 27.69 27.69 0.0 0.0 0.0 16.5 14.4 13.7 0.00 0.00 0.00 0.00 0.00 0.00
19/10/2009 22 338 0 8 28 0 10 28 0 1008.25 1011.00 1005.00 28.77 29.73 27.69 0.2 2.0 0.0 14.7 17.5 11.1 0.00 0.00 0.00 0.00 0.00 0.00
20/10/2009 202 338 0 10 55 0 16 55 0 1000.53 1006.00 996.00 190.94 241.90 235.44 0.1 2.0 0.0 18.2 19.4 14.6 0.00 2.04 2.04 0.00 2.03 2.03
21/10/2009 158 338 0 8 48 0 12 48 0 996.14 2988.00 992.00 244.94 271.20 261.70 0.4 3.0 0.0 18.3 21.2 15.6 0.00 0.00 0.00 0.00 0.00 0.00
22/10/2009 0 315 315 0 4 0 4 4 4 1002.00 1002.00 1002.00 271.20 271.20 271.20 0.0 0.0 0.0 15.6 15.6 15.6 0.00 0.04 0.04 0.00 4.85 4.85
21/10/2009 338 338 0 8 48 0 12 48 0 996.40 2988.00 992.00 246.02 271.20 261.70 0.4 3.0 0.0 18.2 21.2 15.4 0.00 0.04 0.04 0.00 4.85 4.85
22/10/2009 292 338 0 9 52 0 14 52 0 998.16 1005.00 991.00 271.74 275.51 241.01 0.0 0.0 0.0 14.9 17.1 11.7 0.00 0.00 0.00 0.00 0.00 0.00
23/10/2009 292 338 0 12 42 0 17 42 0 1011.82 1015.00 1005.00 275.51 275.51 275.51 0.3 2.0 0.0 18.3 22.4 13.5 0.00 0.00 0.00 0.00 0.00 0.00
24/10/2009 112 338 0 9 277 0 11 277 0 1014.99 1016.00 1013.00 275.51 275.51 275.51 0.3 2.0 0.0 20.1 26.6 16.0 0.00 0.00 0.00 0.00 0.00 0.00
25/10/2009 68 338 0 3 10 0 4 10 0 1015.14 1016.00 1015.00 275.51 275.51 275.51 0.0 0.0 0.0 18.2 19.1 16.6 0.00 0.00 0.00 0.00 0.00 0.00
25/10/2009 68 0 0 3 7 3 7 7 3 1015.00 1015.00 1015.00 275.51 275.51 275.51 0.0 0.0 0.0 17.9 17.9 17.9 0.00 0.00 0.00 0.00 0.00 0.00
25/10/2009 68 0 0 3 3 3 7 3 3 1015.00 1015.00 1015.00 275.51 275.51 275.51 0.0 0.0 0.0 17.9 17.9 17.9 0.00 0.00 0.00 0.00 0.00 0.00
25/10/2009 22 338 0 3 10 0 4 10 0 1015.63 1016.00 1015.00 275.51 275.51 275.51 0.5 2.0 0.0 19.8 22.2 17.9 0.00 0.00 0.00 0.00 0.00 0.00
25/10/2009 112 338 0 3 16 0 5 16 0 1015.55 1017.00 1004.00 275.51 275.51 275.51 0.5 2.0 0.0 21.4 25.0 17.9 0.00 0.00 0.00 0.00 0.00 0.00
26/10/2009 202 338 0 4 25 0 5 25 0 1016.60 1018.00 1015.00 275.51 275.51 275.51 0.4 2.0 0.0 19.7 23.2 17.3 0.00 0.00 0.00 0.00 0.00 0.00
27/10/2009 22 338 0 5 20 0 7 20 0 1016.91 1019.00 1015.00 275.51 275.51 275.51 0.5 2.0 0.0 18.0 21.4 15.5 0.00 0.00 0.00 0.00 0.00 0.00
27/10/2009 22 158 158 5 13 13 7 13 13 1016.91 1016.00 1016.00 275.51 275.51 275.51 0.5 0.0 0.0 18.0 20.6 20.6 0.00 0.00 0.00 0.00 0.00 0.00
27/10/2009 112 338 0 5 369 0 8 369 0 1017.00 1019.00 1015.00 275.51 275.51 275.51 0.4 2.0 0.0 18.2 21.4 14.6 0.00 0.00 0.00 0.00 0.00 0.00
27/10/2009 112 90 90 5 7 6 8 7 7 1017.00 1018.00 1018.00 275.51 275.51 275.51 0.4 0.0 0.0 18.2 18.5 18.5 0.00 0.00 0.00 0.00 0.00 0.00
27/10/2009 68 338 0 5 369 0 8 369 0 1017.01 1019.00 1015.00 275.51 275.51 275.51 0.4 2.0 0.0 18.2 21.4 14.6 0.00 0.00 0.00 0.00 0.00 0.00
27/10/2009 68 112 112 5 9 9 8 9 9 1017.01 1018.00 1018.00 275.51 275.51 275.51 0.4 0.0 0.0 18.2 18.4 18.4 0.00 0.00 0.00 0.00 0.00 0.00
27/10/2009 90 338 0 5 369 0 7 369 0 1017.24 1019.00 1015.00 275.51 275.51 275.51 0.3 2.0 0.0 18.3 21.4 14.6 0.00 0.00 0.00 0.00 0.00 0.00
28/10/2009 112 338 0 5 32 0 6 32 0 1018.70 1020.00 1017.00 275.51 275.51 275.51 0.3 2.0 0.0 18.8 21.0 16.7 0.00 0.00 0.00 0.00 0.00 0.00
29/10/2009 22 338 0 4 19 0 6 19 0 1017.18 1018.00 1015.00 275.51 275.51 275.51 0.3 2.0 0.0 19.4 22.6 17.0 0.00 0.00 0.00 0.00 0.00 0.00
30/10/2009 68 338 0 7 33 0 9 12 0 1018.67 1021.00 1017.00 275.51 275.51 275.51 0.3 2.0 0.0 18.9 22.8 16.2 0.00 0.00 0.00 0.00 0.00 0.00
31/10/2009 112 338 0 5 277 0 5 277 0 1022.28 1024.00 1021.00 275.51 275.51 275.51 0.3 2.0 0.0 18.7 20.5 12.6 0.00 0.00 0.00 0.00 0.00 0.00
31/10/2009 0 315 315 0 0 0 0 0 0 1023.00 1023.00 1023.00 275.51 275.51 275.51 0.0 0.0 0.0 18.9 18.9 18.9 0.00 0.00 0.00 0.00 0.00 0.00
31/10/2009 292 338 0 4 277 0 5 277 0 1022.31 1024.00 1021.00 275.51 275.51 275.51 0.3 2.0 0.0 18.7 20.5 12.6 0.00 0.00 0.00 0.00 0.00 0.00
1/11/2009 202 338 0 5 21 0 5 21 0 1018.13 1020.00 1012.00 275.54 275.51 275.51 0.3 2.0 0.0 19.1 21.3 19.5 0.00 0.00 0.00 0.00 0.00 0.00
2/11/2009 292 338 0 12 50 0 13 50 0 1011.59 1012.00 1007.00 276.79 278.52 276.52 0.2 1.0 0.0 16.9 18.8 7.3 0.00 0.00 0.00 0.00 0.00 0.00
3/11/2009 292 338 0 11 51 0 11 51 0 1006.72 1011.00 1004.00 278.85 279.19 278.52 0.2 2.0 0.0 16.5 22.4 7.9 0.00 0.21 0.21 0.00 3.01 3.01
4/11/2009 248 338 0 15 40 0 15 40 0 1003.07 1006.00 1001.00 279.19 279.19 279.19 0.3 2.0 0.0 15.3 20.5 8.9 0.00 0.21 0.21 0.00 0.67 0.67
5/11/2009 292 338 0 13 184 0 13 184 0 1005.03 1006.00 1003.00 279.21 279.30 279.19 0.3 2.0 0.0 12.5 17.8 4.7 0.00 0.21 0.21 0.00 0.00 0.00
5/11/2009 292 338 0 14 41 1 14 41 1 1006.05 1015.00 1004.00 279.45 279.54 275.51 0.0 0.0 0.0 10.2 17.9 2.7 0.00 0.21 0.21 0.00 0.00 0.00
6/11/2009 22 338 0 6 27 0 6 27 0 1008.20 1011.00 1007.00 279.54 279.54 279.54 0.0 0.0 0.0 10.3 14.1 3.4 0.00 0.21 0.21 0.00 0.35 0.35
6/11/2009 22 158 0 3 3 0 7 3 0 1015.00 1015.00 1011.00 275.51 279.54 275.51 0.0 0.0 0.0 17.9 17.9 14.1 0.00 0.21 0.21 0.00 0.35 0.35
6/11/2009 292 338 0 7 31 0 7 31 0 1009.60 1013.00 1007.00 279.53 279.54 279.54 0.3 2.0 0.0 12.8 17.6 3.4 0.00 0.00 0.00 0.00 0.00 0.00
7/11/2009 292 338 0 12 60 0 12 60 0 1007.50 1012.00 1003.00 280.44 282.04 279.24 0.2 2.0 0.0 12.1 19.5 0.3 0.00 0.00 0.00 0.00 0.00 0.00
8/11/2009 0 338 0 11 63 0 11 63 0 1004.76 1010.00 1001.00 282.46 283.06 282.04 0.2 4.0 0.0 10.3 17.6 -0.2 0.00 0.00 0.00 0.00 0.00 0.00
21/11/2009 158 202 22 4 12 0 4 12 0 1024.80 1026.00 1002.00 258.64 247.88 247.88 0.5 1.0 0.0 17.0 18.0 15.3 0.00 0.11 0.11 0.00 3.17 3.17
21/11/2009 158 158 0 3 12 0 7 12 0 1015.00 1025.00 1011.00 275.51 247.88 247.88 0.0 1.0 0.0 17.9 17.9 14.1 0.00 0.11 0.11 0.00 3.17 3.17
21/11/2009 158 202 22 11 14 0 11 14 0 1024.24 1026.00 1002.00 249.49 247.88 247.88 0.1 1.0 0.0 15.2 18.0 14.1 0.00 0.11 0.11 0.00 3.17 3.17
22/11/2009 22 338 0 4 21 0 4 21 0 1023.02 1026.00 1021.00 248.01 248.14 247.88 0.1 1.0 0.0 18.2 21.2 13.0 0.00 0.00 0.00 0.00 0.00 0.00
23/11/2009 112 338 0 6 20 0 6 20 0 1025.93 1028.00 1024.00 248.14 248.14 248.14 0.2 1.0 0.0 15.4 21.2 9.2 0.00 0.03 0.03 0.00 0.26 0.26
23/11/2009 0 338 0 3 10 0 3 10 0 1025.85 1026.00 1015.00 248.14 248.14 248.14 0.0 0.0 0.0 14.0 17.9 11.8 0.00 0.00 0.00 0.00 0.00 0.00
24/11/2009 0 338 0 4 21 0 4 21 0 1024.86 1027.00 1021.00 248.15 248.14 248.14 0.2 1.0 0.0 13.6 18.4 8.5 0.00 0.00 0.00 0.00 0.00 0.00
25/11/2009 0 338 0 5 15 0 5 15 0 1018.40 1022.00 1016.00 248.15 248.14 248.14 0.2 1.0 0.0 13.0 17.8 4.5 0.00 0.00 0.00 0.00 0.00 0.00
26/11/2009 202 338 0 5 21 0 5 21 0 1018.10 1021.00 1016.00 248.17 248.67 248.14 0.2 1.0 0.0 15.4 19.1 11.7 0.00 0.00 0.00 0.00 0.00 0.00
27/11/2009 22 338 0 3 14 0 3 14 0 1015.65 1018.00 1014.00 248.68 248.67 248.67 0.1 1.0 0.0 14.2 16.5 10.6 0.00 0.00 0.00 0.00 0.53 0.53
28/11/2009 315 338 0 6 30 0 6 30 0 1016.74 1021.00 1012.00 248.68 248.67 248.67 0.2 1.0 0.0 12.3 17.5 7.2 0.00 0.00 0.00 0.00 0.00 0.00
29/11/2009 338 338 0 4 17 0 4 17 0 1003.97 1012.00 998.00 249.17 250.32 248.67 0.0 0.0 0.0 11.1 13.5 4.6 0.00 0.00 0.00 0.00 0.00 0.00
30/11/2009 292 338 0 14 43 5 14 43 5 947.15 1004.00 753.53 250.32 250.32 250.32 0.2 0.0 0.0 6.5 10.8 -0.3 0.00 0.00 0.00 0.00 0.00 0.00
1/12/2009 292 338 0 17 48 0 17 48 0 757.45 758.78 756.53 250.32 250.32 250.32 0.0 0.0 0.0 3.8 9.3 -4.0 0.00 0.00 0.00 0.00 0.00 0.00
1/12/2009 292 112 68 15 14 8 15 14 8 769.20 1015.00 1015.00 250.33 250.32 250.32 0.2 0.0 0.0 7.8 10.8 7.0 0.00 0.00 0.00 0.00 0.00 0.00
2/12/2009 112 338 0 5 22 0 5 22 0 1013.79 1017.00 1010.00 250.32 250.32 250.32 0.2 1.0 0.0 12.7 17.2 4.6 0.00 0.00 0.00 0.00 0.00 0.00
3/12/2009 338 338 0 8 47 0 8 47 0 1008.09 1011.00 1006.00 250.52 250.59 250.32 0.1 1.0 0.0 12.3 17.1 3.7 0.00 0.00 0.00 0.00 0.00 0.00
4/12/2009 315 338 0 12 46 0 12 46 0 1012.22 1016.00 1010.00 250.59 250.59 250.59 0.1 1.0 0.0 11.6 17.2 2.5 0.00 0.00 0.00 0.00 0.26 0.26
5/12/2009 338 338 0 6 23 0 6 23 0 1016.61 1019.00 1015.00 250.59 250.59 250.59 0.2 1.0 0.0 12.9 17.7 4.4 0.00 0.00 0.00 0.00 0.00 0.00
5/12/2009 0 22 22 4 4 4 4 4 4 1018.00 1018.00 1018.00 250.59 250.59 250.59 0.0 0.0 0.0 10.9 10.9 10.9 0.00 0.00 0.00 0.00 0.00 0.00
5/12/2009 0 338 0 6 23 0 6 23 0 1016.61 1019.00 1015.00 250.59 250.59 250.59 0.2 1.0 0.0 12.9 17.7 4.4 0.00 0.00 0.00 0.00 0.00 0.00
6/12/2009 22 338 0 6 14 0 6 14 0 1016.03 1019.00 1015.00 250.59 250.59 250.59 0.0 1.0 0.0 13.5 16.4 6.3 0.00 0.00 0.00 0.00 0.00 0.00
7/12/2009 22 338 0 6 22 0 6 22 0 1014.77 1016.00 1013.00 250.59 250.59 250.59 0.2 1.0 0.0 14.7 19.0 9.4 0.00 0.00 0.00 0.00 0.00 0.00
7/12/2009 0 225 225 19 19 19 19 19 19 1015.00 1015.00 1015.00 250.59 250.59 250.59 0.0 0.0 0.0 10.9 10.9 10.9 0.00 0.00 0.00 0.00 0.00 0.00
7/12/2009 248 338 0 6 28 0 6 28 0 1014.77 1016.00 1013.00 250.59 250.59 250.59 0.2 1.0 0.0 14.7 19.0 9.1 0.00 0.00 0.00 0.00 0.00 0.00
8/12/2009 270 338 0 19 364 0 19 364 0 1015.00 1017.00 1015.00 250.59 250.59 250.59 0.0 0.0 0.0 10.9 16.1 4.0 0.00 0.00 0.00 0.00 0.00 0.00
8/12/2009 270 270 270 19 553 9 19 553 553 1015.00 1016.00 1016.00 250.59 250.59 250.59 0.0 0.0 0.0 10.9 4.0 4.0 0.00 0.00 0.00 0.00 0.00 0.00
8/12/2009 292 338 0 4 10 0 4 10 0 1021.63 1023.00 1021.00 250.59 250.59 250.59 0.0 0.0 0.0 13.2 14.5 11.9 0.00 0.00 0.00 0.00 0.00 0.00
9/12/2009 22 338 0 5 19 0 5 19 0 1023.04 1025.00 1021.00 250.59 250.59 250.59 0.2 1.0 0.0 13.0 17.0 5.1 0.00 0.00 0.00 0.00 0.00 0.00
9/12/2009 22 248 0 0 3 0 0 7 0 1024.00 1024.00 1015.00 250.59 250.59 250.59 0.0 0.0 0.0 12.4 17.9 12.4 0.00 0.00 0.00 0.00 0.00 0.00
9/12/2009 22 248 0 0 3 0 0 7 0 1024.00 1024.00 1015.00 250.59 250.59 250.59 0.0 0.0 0.0 12.4 17.9 12.3 0.00 0.00 0.00 0.00 0.00 0.00
9/12/2009 0 248 248 0 0 0 0 0 0 1024.00 1024.00 1024.00 250.59 250.59 250.59 0.0 0.0 0.0 12.4 12.4 12.4 0.00 0.00 0.00 0.00 0.00 0.00
9/12/2009 0 248 0 0 3 0 0 7 0 1024.00 1025.00 1015.00 250.59 250.59 250.59 0.0 0.0 0.0 12.4 17.9 11.9 0.00 0.00 0.00 0.00 0.00 0.00
10/12/2009 22 338 0 0 22 0 0 22 0 1024.00 1025.00 1023.00 250.59 250.59 250.59 0.0 0.0 0.0 12.4 12.4 5.0 0.00 0.00 0.00 0.00 0.00 0.00
10/12/2009 22 270 270 0 0 0 0 0 0 1024.00 1024.00 1024.00 250.59 250.59 250.59 0.0 0.0 0.0 12.4 11.2 11.2 0.00 0.00 0.00 0.00 0.00 0.00
10/12/2009 22 338 0 0 24 0 0 24 0 1024.00 1026.00 1023.00 250.59 250.59 250.59 0.0 1.0 0.0 12.4 18.0 4.4 0.00 0.00 0.00 0.00 0.00 0.00
10/12/2009 0 22 22 9 9 9 9 9 9 1023.00 1023.00 1023.00 250.59 250.59 250.59 0.0 0.0 0.0 11.4 11.4 11.4 0.00 0.00 0.00 0.00 0.00 0.00
10/12/2009 22 338 0 0 24 0 0 24 0 1024.00 1026.00 1022.00 250.59 250.59 250.59 0.0 1.0 0.0 12.4 18.0 4.4 0.00 0.00 0.00 0.00 0.00 0.00
11/12/2009 22 338 0 15 22 0 15 22 0 1015.13 1023.00 1015.00 250.59 250.59 250.59 0.0 1.0 0.0 6.5 18.0 4.0 0.00 0.00 0.00 0.00 0.00 0.00
12/12/2009 22 338 0 9 10 1 9 10 1 1012.32 1010.00 1009.00 251.13 261.29 250.59 0.0 0.0 0.0 9.9 8.8 6.6 0.00 0.00 0.00 0.00 0.00 0.00
13/12/2009 22 338 0 5 17 0 5 17 0 1009.01 1010.00 1007.00 268.93 271.98 261.29 0.0 1.0 0.0 5.9 9.1 0.2 0.00 0.00 0.00 0.00 7.92 7.92
13/12/2009 22 338 0 10 22 2 10 22 2 1007.67 1008.00 1007.00 272.14 272.25 271.98 0.0 0.0 0.0 3.3 5.7 -2.4 0.00 0.00 0.00 0.00 21.13 21.13
13/12/2009 22 22 22 10 12 12 10 12 12 1007.67 1007.00 1007.00 272.14 272.25 272.25 0.0 0.0 0.0 3.3 2.2 2.2 0.00 0.00 0.00 0.00 19.15 19.15
13/12/2009 22 338 0 11 24 2 11 24 2 1007.43 1008.00 1007.00 272.18 272.25 271.98 0.0 0.0 0.0 2.5 5.8 -3.0 0.00 0.00 0.00 0.00 19.15 19.15
14/12/2009 22 338 0 15 39 0 15 39 0 1001.96 1007.00 999.00 276.04 289.75 272.25 0.0 0.0 0.0 0.6 6.4 -6.4 0.00 0.00 0.00 0.00 19.15 19.15
15/12/2009 292 338 0 7 34 0 7 34 0 1006.26 1009.00 1003.00 292.10 292.26 289.75 0.1 1.0 0.0 3.8 7.0 -6.2 0.00 0.00 0.00 0.00 17.30 17.30
16/12/2009 292 338 0 5 26 0 5 26 0 1007.58 1010.00 1005.00 292.26 292.26 292.26 0.1 1.0 0.0 4.0 7.1 -3.7 0.00 0.00 0.00 0.00 2.71 2.71
17/12/2009 292 338 0 6 22 0 6 22 0 1006.61 1010.00 1004.00 292.26 292.26 292.26 0.1 1.0 0.0 4.4 8.6 -4.3 0.00 0.00 0.00 0.00 0.00 0.00
18/12/2009 22 338 0 6 14 0 6 14 0 1008.84 1010.00 1007.00 292.26 292.26 292.26 0.0 0.0 0.0 1.4 2.5 -3.3 0.00 0.00 0.00 0.00 0.00 0.00
18/12/2009 22 90 0 4 5 2 4 7 2 1007.00 1015.00 1007.00 292.26 292.26 275.51 0.0 0.0 0.0 1.6 17.9 1.6 0.00 0.00 0.00 0.00 0.00 0.00
18/12/2009 292 338 0 12 51 0 12 51 0 1003.77 1015.00 1001.00 292.26 292.26 275.51 0.1 1.0 0.0 2.7 17.9 -6.7 0.00 0.00 0.00 0.00 0.00 0.00
19/12/2009 0 248 248 0 0 0 0 0 0 1003.00 1003.00 1003.00 292.26 292.26 292.26 0.0 0.0 0.0 4.5 4.5 4.5 0.00 0.00 0.00 0.00 0.00 0.00
18/12/2009 315 338 0 12 51 0 12 51 0 1003.77 1015.00 1001.00 292.26 292.26 275.51 0.1 1.0 0.0 2.7 17.9 -6.7 0.00 0.00 0.00 0.00 0.00 0.00
19/12/2009 338 338 0 6 26 0 6 26 0 1009.52 1010.00 1002.00 292.26 292.26 292.26 0.0 1.0 0.0 1.0 9.3 -6.5 0.00 0.00 0.00 0.00 0.00 0.00
20/12/2009 22 338 0 6 30 0 6 30 0 1012.84 1015.00 1010.00 292.26 292.26 292.26 0.1 1.0 0.0 2.8 9.1 -4.8 0.00 0.00 0.00 0.00 0.00 0.00
21/12/2009 22 338 0 3 16 0 3 16 0 1004.26 1014.00 999.00 295.94 299.66 292.26 0.0 0.0 0.0 6.0 8.6 -0.8 0.00 0.00 0.00 0.00 0.00 0.00
22/12/2009 338 338 0 4 10 0 4 10 0 996.41 3081.00 991.00 301.71 305.40 299.66 0.0 0.0 0.0 10.2 12.4 5.9 0.00 0.00 0.00 0.00 7.40 7.40
22/12/2009 338 338 0 2 9 0 2 9 0 995.07 1015.00 994.00 305.40 305.40 275.51 0.0 0.0 0.0 11.2 17.9 10.2 0.00 0.00 0.00 0.00 7.40 7.40
22/12/2009 0 270 270 2 2 2 2 2 2 997.00 997.00 997.00 305.40 305.40 305.40 0.0 0.0 0.0 11.3 11.3 11.3 0.00 0.00 0.00 0.00 5.75 5.75
22/12/2009 292 338 0 3 9 0 3 9 0 995.88 1015.00 994.00 305.40 305.40 275.51 0.0 0.0 0.0 11.3 17.9 10.2 0.00 0.00 0.00 0.00 5.75 5.75
23/12/2009 292 338 248 4 9 0 4 9 0 997.97 998.00 997.00 305.40 305.40 305.40 0.0 0.0 0.0 12.2 12.4 11.2 0.00 0.00 0.00 0.00 5.75 5.75
23/12/2009 22 338 0 6 19 0 6 19 0 996.17 1000.00 991.00 307.16 308.90 305.40 0.0 0.0 0.0 11.2 13.3 5.0 0.00 29.89 29.89 0.00 5.75 5.75
24/12/2009 22 338 0 6 21 0 6 21 0 991.82 996.00 987.00 312.47 315.50 308.90 0.0 0.0 0.0 12.4 14.7 5.5 0.00 7.77 7.77 0.00 3.57 3.57
25/12/2009 248 338 0 12 41 0 12 41 0 1005.31 1011.00 994.00 315.76 315.77 315.50 0.1 1.0 0.0 10.3 15.4 2.1 0.00 7.77 7.77 0.00 6.60 6.60
26/12/2009 68 338 0 9 31 0 9 31 0 1005.29 3079.00 1003.00 316.47 318.01 315.77 0.0 1.0 0.0 8.5 10.8 2.1 0.00 7.77 7.77 0.00 0.26 0.26
26/12/2009 68 338 0 3 12 0 7 12 0 1015.00 1025.00 1007.00 275.51 318.01 247.88 0.0 1.0 0.0 17.9 17.9 9.5 0.00 7.77 7.77 0.00 0.26 0.26
26/12/2009 68 338 0 8 31 0 8 31 0 1005.43 3079.00 1003.00 316.59 318.54 315.77 0.0 1.0 0.0 8.6 10.8 2.1 0.00 7.77 7.77 0.00 0.26 0.26
27/12/2009 0 248 248 0 0 0 0 0 0 1008.00 1008.00 1008.00 318.54 318.54 318.54 0.0 0.0 0.0 9.5 9.5 9.5 0.00 7.77 7.77 0.00 2.44 2.44
26/12/2009 112 338 0 8 31 0 8 31 0 1005.56 3079.00 1003.00 316.67 318.54 315.77 0.0 1.0 0.0 8.6 10.8 2.1 0.00 7.77 7.77 0.00 2.44 2.44
27/12/2009 112 248 22 5 9 0 5 9 0 1009.96 1010.00 1008.00 318.54 318.54 318.54 0.0 0.0 0.0 9.5 9.6 8.1 0.00 7.77 7.77 0.00 2.44 2.44
27/12/2009 292 338 0 7 37 0 7 37 0 1014.44 1016.00 1008.00 318.52 318.54 275.51 0.1 1.0 0.0 8.8 17.9 0.3 0.00 0.00 0.00 0.00 0.00 0.00
28/12/2009 22 338 0 5 20 0 5 20 0 1008.37 1015.00 1005.00 318.54 318.54 318.54 0.1 1.0 0.0 11.0 13.5 3.0 0.00 11.19 11.19 0.00 0.00 0.00
29/12/2009 338 338 0 4 24 0 4 24 0 1005.36 1007.00 1004.00 319.22 321.25 318.54 0.1 1.0 0.0 14.8 18.4 7.6 0.00 11.19 11.19 0.00 0.00 0.00
2/2/2009 338 158 158 4 4 4 4 4 4 1005.36 3084.00 3084.00 319.22 321.25 321.25 0.1 0.0 0.0 14.8 15.5 15.5 0.00 11.19 11.19 0.00 2.71 2.71
29/12/2009 338 338 0 4 24 0 4 24 0 1005.36 3084.00 1004.00 319.22 321.25 318.54 0.1 1.0 0.0 14.8 18.4 7.6 0.00 11.19 11.19 0.00 2.71 2.71
29/12/2009 338 202 158 4 5 4 4 5 4 1005.36 3084.00 3084.00 319.22 321.25 321.25 0.1 0.0 0.0 14.8 15.5 15.5 0.00 11.19 11.19 0.00 2.71 2.71
29/12/2009 158 338 0 4 24 0 4 24 0 1005.34 3084.00 1004.00 319.25 321.25 318.54 0.1 1.0 0.0 14.8 18.4 7.6 0.00 11.19 11.19 0.00 2.71 2.71
30/12/2009 248 338 0 5 30 0 5 30 0 1002.29 1004.00 1000.00 321.25 321.25 321.25 0.1 1.0 0.0 15.1 18.8 9.6 0.00 11.19 11.19 0.00 2.71 2.71
31/12/2009 22 338 0 5 12 0 5 12 0 1000.72 1001.00 1000.00 321.25 321.25 321.25 0.0 0.0 0.0 14.0 14.9 12.5 0.00 11.19 11.19 0.00 0.00 0.00
31/12/2009 248 338 0 7 42 0 7 42 0 996.37 999.00 993.00 321.31 321.51 321.25 0.1 1.0 0.0 12.3 17.0 0.4 0.00 45.74 45.74 0.00 0.00 0.00
1/1/2010 292 338 0 17 36 3 17 36 3 1001.54 1010.00 1008.00 28.91 0.09 0.09 0.1 0.0 0.0 6.8 11.5 1.7 0.00 1.45 1.45 0.00 1.45 1.45
2/1/2010 292 338 0 9 36 0 9 36 0 1015.38 1020.00 1009.00 0.08 0.00 0.00 0.1 1.0 0.0 8.5 13.5 -3.0 0.00 0.00 0.00 0.00 0.00 0.00
3/1/2010 22 338 0 10 19 3 10 19 3 1019.54 1021.00 1019.00 0.00 0.00 0.00 0.0 0.0 0.0 6.0 8.8 1.3 0.00 0.00 0.00 0.00 0.00 0.00
3/1/2010 22 68 68 10 9 9 10 9 9 1019.54 1019.00 1019.00 0.00 0.00 0.00 0.0 0.0 0.0 6.0 7.4 7.4 0.00 0.00 0.00 0.00 0.00 0.00
3/1/2010 22 338 0 7 645 0 7 645 0 1016.15 1021.00 1011.00 0.00 0.00 0.00 0.2 1.0 0.0 9.4 14.8 -2.1 0.00 0.00 0.00 0.00 0.00 0.00
4/1/2010 68 338 0 7 20 0 7 20 0 1008.41 1012.00 1003.00 1.18 8.77 0.00 0.1 1.0 0.0 9.5 12.1 3.5 0.00 0.00 0.00 0.00 0.00 0.00
5/1/2010 22 338 0 4 27 0 4 27 0 999.79 1003.00 998.00 12.24 14.52 8.77 0.0 0.0 0.0 9.4 10.3 -0.7 0.00 0.00 0.00 0.00 0.00 0.00
6/1/2010 270 338 0 11 42 0 11 42 0 1002.83 1006.00 1000.00 14.52 14.52 14.52 0.1 1.0 0.0 5.2 10.5 -5.6 0.00 0.50 0.50 0.00 6.60 6.60
7/1/2010 22 338 0 10 36 0 10 36 0 999.47 1005.00 994.00 19.64 32.88 14.52 0.0 0.0 0.0 2.8 7.0 -8.0 0.00 0.50 0.50 0.00 0.00 0.00
8/1/2010 338 338 0 10 35 0 10 35 0 993.62 996.00 992.00 37.06 40.27 32.88 0.0 0.0 0.0 1.5 5.3 -7.6 0.00 0.50 0.50 0.00 17.83 17.83
8/1/2010 338 338 315 5 6 3 5 6 3 996.00 996.00 996.00 40.27 40.27 40.27 0.0 0.0 0.0 2.7 2.7 2.7 0.00 0.50 0.50 0.00 25.23 25.23
8/1/2010 338 338 292 11 20 5 11 20 5 996.00 996.00 996.00 40.27 40.27 40.27 0.0 0.0 0.0 -0.9 2.7 -5.7 0.00 0.50 0.50 0.00 25.23 25.23
8/1/2010 292 338 0 11 28 2 11 28 2 996.00 996.00 996.00 40.59 41.06 40.27 0.0 0.0 0.0 -0.7 2.7 -9.2 0.00 0.50 0.50 0.00 25.23 25.23
8/1/2010 292 22 22 11 605 19 11 605 605 996.00 996.00 996.00 40.59 41.06 41.06 0.0 0.0 0.0 -0.7 -16.4 -16.4 0.00 0.50 0.50 0.00 25.23 25.23
8/1/2010 292 338 0 9 24 0 12 24 0 997.19 998.00 997.00 41.66 42.19 41.86 0.0 0.0 0.0 -0.1 2.4 -8.1 0.00 1.58 1.58 0.00 25.49 25.49
8/1/2010 270 338 0 9 18 0 9 18 0 997.58 998.00 997.00 42.36 42.45 42.19 0.0 0.0 0.0 0.4 2.4 -5.0 0.00 0.50 0.50 0.00 25.23 25.23
8/1/2010 270 315 248 11 17 6 11 17 6 998.00 998.00 996.00 42.45 42.45 40.27 0.0 0.0 0.0 -0.7 2.7 -5.0 0.00 0.50 0.50 0.00 25.23 25.23
8/1/2010 292 338 0 9 28 0 9 28 0 999.31 1001.00 996.00 42.71 42.72 40.27 0.0 0.0 0.0 0.7 3.8 -9.0 0.00 0.50 0.50 0.00 25.23 25.23
9/1/2010 292 338 0 15 48 0 15 48 0 1003.30 1009.00 1001.00 42.67 42.72 42.72 0.2 1.0 0.0 -2.8 5.8 -15.3 0.00 0.00 0.00 0.00 0.00 0.00
10/1/2010 292 338 0 8 44 0 8 44 0 1011.17 1014.00 1008.00 42.72 42.72 42.72 0.1 1.0 0.0 1.0 6.3 -12.8 0.00 0.00 0.00 0.00 0.00 0.00
10/1/2010 292 338 0 11 48 0 11 48 0 1006.39 1797.00 996.00 42.70 42.72 40.27 0.1 1.0 0.0 -0.3 6.9 -15.3 0.00 0.00 0.00 0.00 0.00 0.00
10/1/2010 0 68 68 9 9 9 9 9 9 1013.00 1013.00 1013.00 42.72 42.72 42.72 0.0 0.0 0.0 1.1 1.1 1.1 0.00 0.00 0.00 0.00 0.00 0.00
10/1/2010 22 338 0 11 48 0 11 48 0 1006.49 1797.00 996.00 42.70 42.72 40.27 0.1 1.0 0.0 -0.3 6.9 -15.3 0.00 0.00 0.00 0.00 0.00 0.00
11/1/2010 22 338 0 6 23 0 6 23 0 1013.91 1017.00 1011.00 42.72 42.72 42.72 0.2 1.0 0.0 4.0 8.8 -2.7 0.00 0.00 0.00 0.00 0.00 0.00
11/1/2010 22 158 68 0 0 0 0 0 0 1017.00 1017.00 1017.00 42.72 42.72 42.72 0.0 0.0 0.0 4.5 4.5 4.5 0.00 0.00 0.00 0.00 0.00 0.00
11/1/2010 0 202 68 0 4 0 0 4 0 1017.75 1018.00 1017.00 42.72 42.72 42.72 0.0 0.0 0.0 4.6 4.6 4.5 0.00 0.00 0.00 0.00 0.00 0.00
11/1/2010 158 248 158 4 6 0 4 6 0 1018.00 1018.00 997.00 42.72 42.72 42.19 0.0 0.0 0.0 4.6 4.6 2.4 0.00 0.00 0.00 0.00 0.00 0.00
11/1/2010 292 338 0 3 10 0 3 10 0 1017.97 1018.00 997.00 42.72 42.72 42.19 0.0 0.0 0.0 4.6 5.1 1.4 0.00 0.00 0.00 0.00 0.00 0.00
12/1/2010 338 338 0 5 21 0 5 21 0 1011.89 1018.00 1003.00 43.86 50.38 42.72 0.1 1.0 0.0 5.2 9.5 -4.5 0.00 0.00 0.00 0.00 0.00 0.00
12/1/2010 0 315 315 6 6 6 6 6 6 1004.00 1004.00 1004.00 50.38 50.38 50.38 0.0 0.0 0.0 6.8 6.8 6.8 0.00 0.00 0.00 0.00 7.66 7.66
12/1/2010 315 338 0 5 21 0 5 21 0 1011.56 1018.00 1003.00 44.12 50.38 42.72 0.1 1.0 0.0 5.3 9.5 -4.5 0.00 0.00 0.00 0.00 7.66 7.66
13/1/2010 292 338 0 11 52 0 11 52 0 1007.74 1011.00 1003.00 50.38 50.38 50.38 0.1 1.0 0.0 8.5 14.5 -1.8 0.00 0.00 0.00 0.00 7.66 7.66
14/1/2010 338 338 0 12 74 0 12 74 0 998.63 1006.00 994.00 54.47 55.86 50.38 0.0 1.0 0.0 7.7 12.4 -1.8 0.00 0.00 0.00 0.00 0.00 0.00
15/1/2010 292 338 0 10 39 0 10 39 0 1016.33 1022.00 1006.00 55.85 55.86 42.72 0.1 1.0 0.0 9.7 15.7 0.4 0.00 0.00 0.00 0.00 0.00 0.00
16/1/2010 22 338 0 5 16 0 5 16 0 1019.39 1023.00 1017.00 55.86 55.86 55.86 0.2 1.0 0.0 10.7 14.5 4.1 0.00 0.00 0.00 0.00 0.00 0.00
17/1/2010 112 338 0 11 21 0 11 21 0 1019.26 1020.00 1018.00 55.86 55.86 55.86 0.0 0.0 0.0 9.9 13.0 5.4 0.00 0.00 0.00 0.00 0.00 0.00
17/1/2010 112 338 0 5 20 0 5 20 0 1022.31 1025.00 1015.00 55.86 55.86 55.86 0.0 1.0 0.0 11.4 17.9 -2.4 0.00 0.00 0.00 0.00 0.00 0.00
18/1/2010 112 338 0 4 18 0 4 18 0 1022.07 1024.00 1019.00 56.28 58.56 55.86 0.0 1.0 0.0 10.7 12.0 5.1 0.00 0.00 0.00 0.00 0.00 0.00
19/1/2010 22 338 0 3 12 0 3 12 0 1018.19 1022.00 1015.00 58.76 58.83 58.56 0.0 0.0 0.0 10.2 11.3 7.1 0.00 0.00 0.00 0.00 0.00 0.00
20/1/2010 112 338 0 9 45 0 9 45 0 1014.93 1018.00 1013.00 58.83 58.83 58.83 0.1 1.0 0.0 11.4 16.5 5.0 0.00 0.00 0.00 0.00 0.00 0.00
21/1/2010 112 338 0 7 28 0 7 28 0 1019.31 1022.00 1017.00 58.83 58.83 58.83 0.2 1.0 0.0 10.7 15.4 2.3 0.00 0.00 0.00 0.00 0.00 0.00
22/1/2010 22 338 0 6 18 0 6 18 0 1019.17 1021.00 1015.00 58.83 58.83 58.83 0.2 1.0 0.0 10.4 15.8 4.8 0.00 0.00 0.00 0.00 0.00 0.00
23/1/2010 22 338 0 9 18 2 9 18 2 1019.44 1020.00 1019.00 58.83 58.83 58.83 0.0 0.0 0.0 6.9 8.8 2.0 0.00 0.00 0.00 0.00 0.00 0.00
23/1/2010 22 0 0 9 10 10 9 10 10 1019.44 1020.00 1020.00 58.83 58.83 58.83 0.0 0.0 0.0 6.9 6.3 6.3 0.00 0.00 0.00 0.00 0.00 0.00
23/1/2010 22 338 0 8 18 0 8 18 0 1019.53 1020.00 1019.00 58.83 58.83 58.83 0.1 1.0 0.0 7.6 11.6 2.0 0.00 0.00 0.00 0.00 0.00 0.00
23/1/2010 22 112 112 8 9 9 8 9 9 1019.53 1019.00 1019.00 58.83 58.83 58.83 0.1 1.0 1.0 7.6 10.4 10.4 0.00 0.00 0.00 0.00 0.00 0.00
23/1/2010 68 338 0 8 18 0 8 18 0 1019.13 1020.00 1018.00 58.83 58.83 58.83 0.1 1.0 0.0 8.6 11.7 2.0 0.00 0.00 0.00 0.00 0.00 0.00
24/1/2010 22 338 0 7 14 2 7 14 2 1018.31 1019.00 1018.00 58.83 58.83 58.83 0.0 0.0 0.0 9.3 10.2 5.8 0.00 0.00 0.00 0.00 0.00 0.00
24/1/2010 22 45 45 7 10 10 7 10 10 1018.31 1018.00 1018.00 58.83 58.83 58.83 0.0 0.0 0.0 9.3 7.8 7.8 0.00 0.00 0.00 0.00 0.00 0.00
24/1/2010 22 338 0 8 15 0 8 15 0 1018.68 1020.00 1018.00 58.83 58.83 58.83 0.0 0.0 0.0 9.0 10.9 5.1 0.00 0.00 0.00 0.00 0.00 0.00
24/1/2010 22 315 315 8 2 2 8 2 2 1018.68 1019.00 1019.00 58.83 58.83 58.83 0.0 0.0 0.0 9.0 10.9 10.9 0.00 0.00 0.00 0.00 0.00 0.00
24/1/2010 22 338 0 7 21 0 7 21 0 1018.92 1020.00 1018.00 58.83 58.83 58.83 0.2 1.0 0.0 9.9 13.8 5.1 0.00 0.00 0.00 0.00 0.00 0.00
24/1/2010 112 338 0 7 19 0 7 19 0 1020.58 1022.00 1019.00 58.83 58.83 58.83 0.1 1.0 0.0 11.3 13.4 -2.9 0.00 0.00 0.00 0.00 0.00 0.00
25/1/2010 22 338 0 5 28 0 5 28 0 1021.35 1023.00 1020.00 62.48 65.96 58.83 0.0 0.0 0.0 6.8 11.0 -4.3 0.00 0.00 0.00 0.00 0.00 0.00
25/1/2010 0 338 338 14 14 14 14 14 14 1022.00 1022.00 1022.00 65.96 65.96 65.96 0.0 0.0 0.0 1.2 1.2 1.2 0.00 0.29 0.29 0.00 7.13 7.13
25/1/2010 22 338 0 6 28 0 6 28 0 1021.38 1023.00 1020.00 62.63 65.96 58.83 0.0 0.0 0.0 6.6 11.0 -4.3 0.00 0.29 0.29 0.00 7.13 7.13
26/1/2010 22 338 0 14 41 0 14 41 0 1019.99 1022.00 1017.00 66.20 66.23 65.96 0.2 1.0 0.0 2.1 9.6 -6.7 0.00 0.00 0.00 0.00 0.00 0.00
27/1/2010 22 338 0 9 28 0 9 28 0 1018.66 1021.00 1016.00 66.23 66.23 66.23 0.2 1.0 0.0 4.1 10.9 -7.5 0.00 0.00 0.00 0.00 0.00 0.00
28/1/2010 292 338 0 5 27 0 5 27 0 1013.69 1020.00 1008.00 66.23 66.23 66.23 0.2 1.0 0.0 6.1 12.2 -2.1 0.00 0.00 0.00 0.00 0.00 0.00
29/1/2010 112 338 0 10 37 0 10 37 0 1002.17 1008.00 997.00 66.23 66.23 66.23 0.2 2.0 0.0 7.1 14.1 0.5 0.00 0.00 0.00 0.00 0.00 0.00
30/1/2010 292 338 0 15 50 0 15 50 0 1000.64 1003.00 997.00 66.23 66.23 66.23 0.3 1.0 0.0 8.0 14.4 -0.9 0.00 0.00 0.00 0.00 0.00 0.00
31/1/2010 112 338 0 11 38 0 11 38 0 1004.99 1010.00 1002.00 66.25 66.56 66.23 0.2 2.0 0.0 6.5 11.0 -2.1 0.00 0.00 0.00 0.00 0.00 0.00
1/2/2010 112 338 0 6 24 0 6 24 0 1016.31 1023.00 1010.00 66.56 66.56 66.56 0.2 1.0 0.0 6.7 12.7 -2.7 0.00 0.00 0.00 0.00 0.26 0.26
2/2/2010 22 338 0 7 28 0 7 28 0 1022.97 1025.00 1021.00 66.56 66.56 66.56 0.2 1.0 0.0 6.5 11.3 -0.5 0.00 0.00 0.00 0.00 0.00 0.00
3/2/2010 22 338 0 7 16 1 7 16 1 1020.41 1022.00 1020.00 66.56 66.56 66.56 0.0 0.0 0.0 4.7 6.3 -0.3 0.00 0.00 0.00 0.00 0.00 0.00
3/2/2010 22 338 0 6 14 0 6 14 0 1019.87 1021.00 1015.00 66.56 66.56 66.56 0.0 0.0 0.0 5.6 17.9 0.2 0.00 0.00 0.00 0.00 0.00 0.00
3/2/2010 22 338 0 6 23 0 6 23 0 1018.29 1020.00 1015.00 66.56 66.56 66.56 0.4 1.0 0.0 10.2 17.9 -6.0 0.00 0.00 0.00 0.00 0.00 0.00
4/2/2010 22 338 0 5 24 0 5 24 0 1012.90 1016.00 1009.00 69.14 73.89 66.56 0.0 1.0 0.0 9.7 11.8 3.1 0.00 0.00 0.00 0.00 0.00 0.00
5/2/2010 292 338 0 10 47 0 10 47 0 1013.02 1017.00 1010.00 73.89 73.89 73.89 0.2 1.0 0.0 10.7 16.8 2.3 0.00 0.00 0.00 0.00 7.40 7.40
6/2/2010 292 338 0 15 51 0 15 51 0 1014.95 1018.00 1012.00 73.89 73.89 73.89 0.2 1.0 0.0 10.0 17.6 2.0 0.00 0.00 0.00 0.00 0.00 0.00
7/2/2010 158 338 0 7 28 0 7 28 0 1012.11 1015.00 1009.00 73.89 73.89 73.89 0.2 1.0 0.0 11.1 15.8 4.2 0.00 0.00 0.00 0.00 0.00 0.00
8/2/2010 22 338 0 5 461 0 5 461 0 1001.72 1010.00 995.00 75.19 79.37 73.89 0.0 1.0 0.0 9.7 11.3 -2.7 0.00 0.00 0.00 0.00 0.00 0.00
9/2/2010 292 338 0 7 47 0 7 47 0 996.45 999.00 993.00 80.45 81.02 79.37 0.2 1.0 0.0 7.8 12.1 -2.5 0.00 0.00 0.00 0.00 5.22 5.22
10/2/2010 292 338 0 10 42 0 10 42 0 1001.07 1002.00 999.00 81.02 81.02 81.02 0.3 2.0 0.0 5.7 11.8 -6.2 0.00 0.00 0.00 0.00 0.00 0.00
10/2/2010 112 338 0 6 18 0 6 18 0 1002.51 1003.00 1002.00 81.02 81.02 81.02 0.0 0.0 0.0 4.6 6.8 -1.2 0.00 0.00 0.00 0.00 0.00 0.00
11/2/2010 292 338 0 15 52 0 15 52 0 1002.25 1006.00 1000.00 81.02 81.02 81.02 0.3 2.0 0.0 -0.5 7.7 -10.9 0.00 0.00 0.00 0.00 0.00 0.00
12/2/2010 292 338 0 10 36 0 10 36 0 1007.72 1010.00 1005.00 81.02 81.02 81.02 0.3 2.0 0.0 1.2 9.1 -13.0 0.00 0.00 0.00 0.00 0.00 0.00
13/2/2010 22 338 0 7 22 0 7 22 0 1009.28 1011.00 1007.00 81.02 81.02 81.02 0.3 2.0 0.0 2.8 9.5 -9.5 0.00 0.00 0.00 0.00 0.00 0.00
13/2/2010 0 338 338 0 0 0 0 0 0 1011.00 1011.00 1011.00 81.02 81.02 81.02 0.0 0.0 0.0 4.1 4.1 4.1 0.00 0.00 0.00 0.00 0.00 0.00
13/2/2010 315 338 0 7 22 0 7 22 0 1009.31 1011.00 1007.00 81.02 81.02 81.02 0.3 2.0 0.0 2.8 9.5 -9.5 0.00 0.00 0.00 0.00 0.00 0.00
14/2/2010 292 338 0 6 42 0 6 42 0 1008.96 1011.00 1007.00 81.02 81.02 81.02 0.3 2.0 0.0 2.8 8.1 -5.4 0.00 0.00 0.00 0.00 0.00 0.00
15/2/2010 22 338 0 11 28 0 11 28 0 1003.14 1008.00 998.00 81.28 83.20 81.02 0.1 1.0 0.0 1.6 7.0 -7.1 0.00 0.00 0.00 0.00 0.00 0.00
16/2/2010 22 338 0 7 32 0 7 32 0 993.95 999.00 991.00 83.59 85.11 83.20 0.0 1.0 0.0 8.0 12.0 -2.9 0.00 0.22 0.22 0.00 2.18 2.18
17/2/2010 202 338 0 3 31 0 3 31 0 991.92 997.00 990.00 85.61 86.76 85.11 0.2 2.0 0.0 10.5 14.3 2.1 0.00 0.22 0.22 0.00 1.92 1.92
18/2/2010 22 338 0 9 39 0 9 39 0 998.56 1003.00 990.00 87.13 93.90 86.76 0.3 3.0 0.0 9.6 15.2 2.0 0.00 0.22 0.22 0.00 1.65 1.65
19/2/2010 292 338 0 10 35 0 10 35 0 992.82 1002.00 987.00 99.41 99.64 93.90 0.3 3.0 0.0 9.0 14.0 0.3 0.00 0.22 0.22 0.00 5.48 5.48
20/2/2010 292 338 0 10 50 0 10 50 0 1005.63 1009.00 999.00 99.62 99.64 82.41 0.4 3.0 0.0 8.1 14.1 -1.7 0.00 0.00 0.00 0.00 0.00 0.00
21/2/2010 22 338 0 5 18 0 5 18 0 1003.74 1009.00 999.00 99.83 100.17 99.64 0.1 1.0 0.0 8.3 10.5 -8.2 0.00 0.00 0.00 0.00 0.00 0.00
22/2/2010 22 338 0 3 21 0 3 21 0 999.52 1001.00 997.00 100.17 100.17 100.17 0.1 1.0 0.0 10.5 13.9 4.5 0.00 0.00 0.00 0.00 0.53 0.53
23/2/2010 292 338 0 7 36 0 7 36 0 1002.53 1005.00 1000.00 100.17 100.17 100.17 0.4 4.0 0.0 14.1 19.3 8.1 0.00 0.00 0.00 0.00 0.00 0.00
24/2/2010 292 338 0 12 76 0 12 76 0 1007.27 1010.00 1004.00 100.76 101.29 100.17 0.4 3.0 0.0 13.6 19.5 6.2 0.00 0.00 0.00 0.00 0.00 0.00
25/2/2010 248 338 0 5 36 0 5 36 0 1005.52 1011.00 1001.00 101.29 101.29 101.29 0.2 2.0 0.0 13.6 16.8 7.8 0.00 0.00 0.00 0.00 0.00 0.00
25/2/2010 0 315 315 4 4 4 4 4 4 1003.00 1003.00 1003.00 101.29 101.29 101.29 0.0 0.0 0.0 14.6 14.6 14.6 0.00 0.00 0.00 0.00 0.00 0.00
25/2/2010 248 338 0 5 36 0 5 36 0 1005.42 1011.00 1001.00 101.29 101.29 101.29 0.2 2.0 0.0 13.6 16.8 7.8 0.00 0.00 0.00 0.00 0.00 0.00
26/2/2010 270 338 0 10 41 0 10 41 0 1008.44 1013.00 1003.00 101.29 101.29 101.29 0.5 4.0 0.0 13.1 17.8 5.9 0.00 0.00 0.00 0.00 0.00 0.00
27/2/2010 68 338 0 7 17 0 7 17 0 1009.15 1012.00 1007.00 101.56 103.21 101.29 0.0 1.0 0.0 10.0 12.2 4.6 0.00 0.00 0.00 0.00 0.00 0.00
27/2/2010 68 90 90 7 5 5 7 5 5 1009.15 1008.00 1008.00 101.56 103.21 103.21 0.0 0.0 0.0 10.0 11.2 11.2 0.00 0.00 0.00 0.00 1.92 1.92
27/2/2010 112 338 0 6 17 0 6 17 0 1005.48 1012.00 998.00 102.51 103.47 101.29 0.0 1.0 0.0 10.8 12.6 4.6 0.00 0.00 0.00 0.00 0.00 0.00
28/2/2010 292 338 0 8 49 0 8 49 0 1003.55 1010.00 997.00 103.64 103.74 103.47 0.1 1.0 0.0 12.9 17.2 6.3 0.00 0.00 0.00 0.00 0.00 0.00
1/3/2010 22 338 0 9 53 0 9 53 0 1012.37 1018.00 1008.00 103.73 103.74 103.74 0.5 4.0 0.0 12.1 18.4 5.6 0.00 0.07 0.07 0.00 0.26 0.26
2/3/2010 112 338 0 11 33 0 11 33 0 1017.59 1020.00 1011.00 103.73 103.74 103.74 0.5 4.0 0.0 10.7 15.6 4.2 0.00 0.07 0.07 0.00 0.00 0.00
3/3/2010 22 338 0 10 36 0 10 36 0 1006.06 1012.00 1003.00 108.88 113.91 103.74 0.0 0.0 0.0 7.5 12.2 -0.9 0.00 0.07 0.07 0.00 0.00 0.00
4/3/2010 112 338 0 8 52 0 8 52 0 1008.53 1014.00 1005.00 113.91 113.91 113.91 0.5 4.0 0.0 11.2 18.2 5.1 0.00 0.07 0.07 0.00 10.17 10.17
5/3/2010 22 338 0 7 28 0 7 28 0 1016.08 1019.00 1013.00 113.91 113.91 113.91 0.3 4.0 0.0 9.7 14.0 2.0 0.00 0.00 0.00 0.00 0.00 0.00
6/3/2010 68 338 0 10 32 0 10 32 0 1016.40 1019.00 1013.00 113.91 113.91 113.91 0.6 4.0 0.0 7.7 12.0 -0.2 0.00 0.00 0.00 0.00 0.00 0.00
7/3/2010 22 338 0 8 39 0 8 39 0 1011.31 1014.00 1008.00 114.87 122.95 113.91 0.3 2.0 0.0 6.6 10.0 -3.0 0.00 0.00 0.00 0.00 0.00 0.00
8/3/2010 22 338 0 8 23 0 8 23 0 1006.45 1008.00 1005.00 132.22 138.28 122.95 0.0 0.0 0.0 1.7 4.7 -5.6 0.00 0.00 0.00 0.00 7.66 7.66
8/3/2010 338 338 0 7 32 0 7 32 0 1002.34 1015.00 1000.00 138.38 138.54 138.28 0.3 2.0 0.0 3.4 17.9 -8.9 0.00 0.00 0.00 0.00 0.00 0.00
9/3/2010 292 338 0 9 42 0 9 42 0 1003.82 1009.00 1000.00 138.54 138.54 138.54 0.7 4.0 0.0 4.8 12.0 -5.2 0.00 0.00 0.00 0.00 0.00 0.00
10/3/2010 292 338 0 8 32 0 8 32 0 1009.54 1013.00 1007.00 138.54 138.54 138.54 0.6 4.0 0.0 2.9 9.7 -8.4 0.00 0.00 0.00 0.00 0.00 0.00
11/3/2010 338 338 0 5 36 0 5 36 0 1012.60 1015.00 1011.00 138.54 138.54 138.54 0.6 4.0 0.0 4.8 10.0 -2.1 0.00 0.00 0.00 0.00 0.00 0.00
12/3/2010 22 338 0 8 31 0 8 31 0 1015.99 1020.00 1013.00 138.54 138.54 138.54 0.6 4.0 0.0 4.3 9.6 -8.4 0.00 0.00 0.00 0.00 0.00 0.00
13/3/2010 338 338 0 6 27 0 6 27 0 1020.82 1023.00 1019.00 138.54 138.54 138.54 0.7 4.0 0.0 7.8 15.3 -4.6 0.00 0.00 0.00 0.00 0.00 0.00
14/3/2010 292 338 0 6 28 0 6 28 0 1022.41 1024.00 1021.00 138.54 138.54 138.54 0.7 4.0 0.0 9.2 17.2 0.0 0.00 0.00 0.00 0.00 0.00 0.00
15/3/2010 112 338 0 8 38 0 8 38 0 1023.62 1027.00 1022.00 138.54 138.54 138.54 0.7 4.0 0.0 7.7 13.1 0.0 0.00 0.00 0.00 0.00 0.00 0.00
16/3/2010 22 338 0 7 34 0 7 34 0 1025.68 1027.00 1024.00 138.54 138.54 138.54 0.7 4.0 0.0 9.1 13.5 1.3 0.00 0.00 0.00 0.00 0.00 0.00
17/3/2010 202 338 0 5 24 0 5 24 0 1028.47 1030.00 1027.00 138.54 138.54 138.54 0.8 5.0 0.0 10.1 13.9 4.2 0.00 0.00 0.00 0.00 0.00 0.00
18/3/2010 202 338 0 4 24 0 4 24 0 1026.88 1030.00 1023.00 138.54 138.54 138.54 0.6 4.0 0.0 11.1 13.9 7.0 0.00 0.00 0.00 0.00 0.00 0.00
19/3/2010 202 338 0 3 25 0 3 25 0 1023.96 1026.00 1021.00 138.54 138.54 138.54 0.6 5.0 0.0 11.1 14.9 1.2 0.00 0.00 0.00 0.00 0.00 0.00
19/3/2010 0 292 68 0 0 0 0 0 0 1022.00 1022.00 1022.00 138.54 138.54 138.54 0.0 0.0 0.0 12.5 12.5 12.5 0.00 0.00 0.00 0.00 0.00 0.00
19/3/2010 0 202 158 0 0 0 0 0 0 1022.00 1022.00 1022.00 138.54 138.54 138.54 0.0 0.0 0.0 12.5 12.5 12.5 0.00 0.00 0.00 0.00 0.00 0.00
19/3/2010 248 338 0 2 10 0 2 10 0 1022.30 1023.00 1021.00 138.54 138.54 138.54 0.0 0.0 0.0 11.6 12.5 10.0 0.00 0.00 0.00 0.00 0.00 0.00
20/3/2010 202 338 0 3 21 0 3 21 0 1019.92 1022.00 1018.00 138.54 138.54 138.54 0.5 3.0 0.0 12.3 16.8 5.0 0.00 0.00 0.00 0.00 0.00 0.00
20/3/2010 0 338 338 6 6 6 6 6 6 1020.00 1020.00 1020.00 138.54 138.54 138.54 0.0 0.0 0.0 15.8 15.8 15.8 0.00 0.00 0.00 0.00 0.00 0.00
20/3/2010 158 338 0 3 21 0 3 21 0 1019.92 1022.00 1018.00 138.54 138.54 138.54 0.5 3.0 0.0 12.4 16.8 5.0 0.00 0.00 0.00 0.00 0.00 0.00
21/3/2010 112 338 0 8 28 0 8 28 0 1019.35 1021.00 1017.00 138.81 141.58 138.54 0.2 1.0 0.0 12.9 17.2 6.3 0.00 0.00 0.00 0.00 0.00 0.00
22/3/2010 112 338 0 6 22 0 6 22 0 1018.86 1021.00 1017.00 143.56 144.02 141.58 0.4 3.0 0.0 12.4 14.9 7.8 0.00 0.00 0.00 0.00 2.71 2.71
23/3/2010 202 338 0 4 22 0 4 22 0 1018.01 1020.00 1015.00 144.02 144.02 144.02 0.4 5.0 0.0 13.1 15.8 8.9 0.00 0.00 0.00 0.00 2.71 2.71
24/3/2010 112 338 0 9 29 0 9 29 0 1012.59 1014.00 1010.00 144.02 144.02 144.02 0.0 0.0 0.0 11.4 13.3 5.3 0.00 0.00 0.00 0.00 0.00 0.00
25/3/2010 112 338 0 8 22 0 8 22 0 1011.23 1012.00 1010.00 144.20 144.28 144.02 0.1 2.0 0.0 12.2 14.2 6.8 0.00 0.00 0.00 0.00 0.00 0.00
26/3/2010 292 338 0 9 34 0 9 34 0 1014.72 1017.00 1011.00 144.28 144.28 144.28 0.8 5.0 0.0 13.7 19.5 5.1 0.00 0.00 0.00 0.00 0.26 0.26
27/3/2010 315 338 0 4 18 0 4 18 0 1016.57 1018.00 1016.00 144.28 144.28 144.28 0.0 0.0 0.0 13.4 13.9 9.1 0.00 0.00 0.00 0.00 0.00 0.00
27/3/2010 292 338 0 12 55 0 12 55 0 1018.33 1021.00 1015.00 144.28 144.28 144.28 0.9 5.0 0.0 14.1 20.2 3.7 0.00 0.00 0.00 0.00 0.00 0.00
28/3/2010 112 338 0 9 32 0 9 32 0 1019.82 1022.00 1017.00 144.28 144.28 144.28 1.0 4.0 0.0 13.2 16.3 7.6 0.00 0.00 0.00 0.00 0.00 0.00
28/3/2010 112 225 225 9 5 5 9 5 5 1019.82 1018.00 1018.00 144.28 144.28 144.28 1.0 2.0 2.0 13.2 16.0 16.0 0.00 0.00 0.00 0.00 0.00 0.00
28/3/2010 112 338 0 8 32 0 8 32 0 1018.74 1022.00 1016.00 144.28 144.28 144.28 0.8 4.0 0.0 13.4 16.3 7.6 0.00 0.00 0.00 0.00 0.00 0.00
29/3/2010 112 338 0 5 27 0 5 27 0 1009.93 1016.00 1005.00 144.28 144.28 144.28 0.5 5.0 0.0 11.8 15.4 7.3 0.00 0.00 0.00 0.00 0.00 0.00
30/3/2010 292 338 0 12 57 0 12 57 0 1006.22 1011.00 1002.00 145.14 145.41 144.28 0.8 5.0 0.0 12.7 19.3 0.5 0.00 0.00 0.00 0.00 0.00 0.00
31/3/2010 292 315 315 12 4 4 12 4 4 1006.22 1011.00 1011.00 145.14 145.41 145.41 0.8 0.0 0.0 12.7 14.4 14.4 0.00 0.00 0.00 0.00 1.12 1.12
31/3/2010 292 338 0 12 57 0 12 57 0 1006.22 1011.00 1002.00 145.14 145.41 144.28 0.8 5.0 0.0 12.7 19.3 0.5 0.00 0.00 0.00 0.00 1.12 1.12
31/3/2010 248 338 0 11 34 0 11 34 0 1012.23 1014.00 1011.00 145.41 145.41 145.41 0.9 5.0 0.0 11.3 16.7 3.9 0.00 0.00 0.00 0.00 0.00 0.00
1/4/2010 292 338 0 10 34 0 10 34 0 1014.55 1018.00 1011.00 145.41 145.41 145.41 0.9 4.0 0.0 11.2 17.5 1.3 0.00 0.00 0.00 0.00 0.00 0.00
2/4/2010 202 338 0 6 36 0 6 36 0 1017.11 1019.00 1015.00 145.41 145.41 145.41 0.9 5.0 0.0 11.0 16.0 6.3 0.00 0.00 0.00 0.00 0.00 0.00
3/4/2010 158 338 0 5 32 0 5 32 0 1013.25 1017.00 1011.00 145.41 145.41 145.41 0.9 5.0 0.0 12.3 16.3 7.1 0.00 0.00 0.00 0.00 0.00 0.00
4/4/2010 112 338 0 9 42 0 9 42 0 1017.13 1024.00 1012.00 146.16 146.46 145.41 0.7 5.0 0.0 12.6 18.9 6.1 0.00 0.00 0.00 0.00 0.00 0.00
5/4/2010 112 338 0 10 39 0 10 39 0 1025.87 1028.00 1023.00 146.47 146.46 146.46 0.9 5.0 0.0 9.9 14.2 2.4 0.00 0.27 0.27 0.00 1.12 1.12
6/4/2010 112 338 0 9 37 0 9 37 0 1020.01 1024.00 1016.00 146.47 146.46 146.46 0.9 4.0 0.0 10.9 16.8 5.1 0.00 0.27 0.27 0.00 0.00 0.00
7/4/2010 22 338 0 6 922 0 6 922 0 1016.23 1023.00 1014.00 147.18 148.38 146.46 0.0 1.0 0.0 12.2 13.5 0.3 0.00 0.00 0.00 0.00 0.00 0.00
8/4/2010 112 338 0 7 37 0 7 37 0 1020.53 1023.00 1019.00 148.38 148.38 148.38 1.0 5.0 0.0 12.4 20.9 3.0 0.00 0.50 0.50 0.00 1.92 1.92
9/4/2010 158 338 0 8 28 0 8 28 0 1022.68 1024.00 1021.00 148.38 148.38 148.38 0.8 4.0 0.0 13.3 19.3 5.3 0.00 0.00 0.00 0.00 0.00 0.00
10/4/2010 22 338 0 7 16 0 7 16 0 1023.85 1024.00 1023.00 148.38 148.38 148.38 0.0 0.0 0.0 12.4 13.3 8.8 0.00 0.00 0.00 0.00 0.00 0.00
10/4/2010 22 338 0 17 36 3 17 36 3 1001.54 1030.00 1008.00 28.91 148.38 0.09 0.1 0.0 0.0 6.8 13.2 1.7 0.00 0.00 0.00 0.00 0.00 0.00
10/4/2010 22 338 0 7 16 0 7 16 0 1023.78 1030.00 1023.00 148.38 148.38 148.38 0.0 0.0 0.0 12.2 13.3 7.7 0.00 0.00 0.00 0.00 0.00 0.00
10/4/2010 22 90 90 7 4 4 7 4 4 1023.78 1023.00 1023.00 148.38 148.38 148.38 0.0 0.0 0.0 12.2 -0.8 -0.8 0.00 0.00 0.00 0.00 0.00 0.00
10/4/2010 202 338 0 7 21 0 7 21 0 1021.66 1030.00 1018.00 148.38 148.38 148.38 1.0 5.0 0.0 15.1 19.8 -0.8 0.00 0.00 0.00 0.00 0.00 0.00
11/4/2010 202 338 0 8 28 0 8 28 0 1010.23 1018.00 1005.00 148.38 148.38 148.38 1.0 5.0 0.0 14.8 20.9 7.0 0.00 0.00 0.00 0.00 0.00 0.00
12/4/2010 112 338 0 10 32 0 10 32 0 1007.99 1010.00 1007.00 149.21 153.07 148.38 0.1 2.0 0.0 10.1 13.4 1.2 0.00 0.00 0.00 0.00 0.00 0.00
13/4/2010 158 338 0 5 31 0 5 31 0 1011.40 1014.00 1009.00 154.54 154.72 153.07 0.6 4.0 0.0 10.4 13.3 4.1 0.00 0.07 0.07 0.00 4.36 4.36
14/4/2010 22 338 0 6 20 0 6 20 0 1011.85 1014.00 1010.00 154.72 154.72 154.72 0.3 2.0 0.0 11.6 14.5 5.9 0.00 0.07 0.07 0.00 1.92 1.92
15/4/2010 22 135 135 6 0 0 6 0 0 1011.85 1012.00 1012.00 154.72 154.72 154.72 0.3 0.0 0.0 11.6 12.1 12.1 0.00 0.07 0.07 0.00 0.00 0.00
14/4/2010 112 338 0 6 20 0 6 20 0 1011.85 1014.00 1010.00 154.72 154.72 154.72 0.3 2.0 0.0 11.6 14.5 5.9 0.00 0.07 0.07 0.00 0.00 0.00
15/4/2010 22 338 0 3 20 0 3 20 0 1011.60 1012.00 1011.00 154.72 154.72 154.72 0.0 0.0 0.0 11.1 12.1 4.7 0.00 0.07 0.07 0.00 0.00 0.00
15/4/2010 158 338 0 5 24 0 5 24 0 1010.66 1012.00 1009.00 154.72 154.72 154.72 0.7 5.0 0.0 13.0 16.9 5.8 0.00 0.07 0.07 0.00 0.00 0.00
16/4/2010 112 338 0 6 28 0 6 28 0 1012.98 1016.00 1011.00 154.72 154.72 154.72 0.4 5.0 0.0 12.5 15.7 7.3 0.00 0.07 0.07 0.00 0.00 0.00
17/4/2010 22 338 0 5 19 0 5 19 0 1014.71 1016.00 1013.00 154.86 155.51 154.72 0.3 3.0 0.0 12.3 15.1 7.5 0.00 0.07 0.07 0.00 0.00 0.00
18/4/2010 158 338 0 4 21 0 4 21 0 1014.64 1016.00 1013.00 155.68 155.78 155.51 0.4 2.0 0.0 12.8 14.9 7.8 0.00 0.07 0.07 0.00 0.86 0.86
19/4/2010 202 338 0 5 24 0 5 24 0 1015.19 1017.00 1013.00 155.78 155.78 155.78 1.1 5.0 0.0 14.3 18.2 8.2 0.00 0.07 0.07 0.00 0.26 0.26
20/4/2010 112 338 0 7 32 0 7 32 0 1016.46 1019.00 1015.00 155.78 155.78 155.78 1.1 5.0 0.0 15.2 22.9 8.2 0.00 0.07 0.07 0.00 0.00 0.00
21/4/2010 202 338 0 4 23 0 4 23 0 1014.88 1019.00 1011.00 155.78 155.78 155.78 1.0 5.0 0.0 14.8 20.1 7.7 0.00 0.07 0.07 0.00 0.00 0.00
23/4/2010 45 338 0 4 26 0 4 26 0 1009.61 1014.00 1007.00 155.85 156.63 155.78 0.5 5.0 0.0 14.9 18.7 11.5 0.00 0.00 0.00 0.00 0.00 0.00
24/4/2010 22 338 0 7 29 0 7 29 0 1015.56 1020.00 1013.00 156.64 156.63 156.63 1.2 5.0 0.0 15.9 22.2 11.5 0.00 0.00 0.00 0.00 0.86 0.86
25/4/2010 202 338 0 4 25 0 4 25 0 1021.01 1024.00 1008.00 156.55 155.78 155.78 1.1 6.0 0.0 16.5 19.7 11.4 0.00 0.00 0.00 0.00 0.00 0.00
26/4/2010 202 338 0 7 26 0 7 26 0 1022.14 1023.00 1020.00 155.78 155.78 155.78 1.2 6.0 0.0 17.3 22.1 12.1 0.00 0.00 0.00 0.00 0.00 0.00
27/4/2010 112 338 0 8 34 0 8 34 0 1020.60 1022.00 1019.00 155.78 155.78 155.78 1.3 6.0 0.0 16.8 22.2 12.1 0.00 0.00 0.00 0.00 0.00 0.00
28/4/2010 202 338 0 5 28 0 5 28 0 1021.88 1023.00 1021.00 155.78 155.78 155.78 1.3 6.0 0.0 18.3 22.3 13.8 0.00 0.00 0.00 0.00 0.00 0.00
29/4/2010 158 338 0 5 36 0 5 36 0 1018.23 1021.00 1015.00 155.78 155.78 155.78 1.2 6.0 0.0 16.8 20.1 13.0 0.00 0.00 0.00 0.00 0.00 0.00
30/4/2010 112 338 0 9 40 0 9 40 0 1013.49 1016.00 1011.00 155.78 155.78 155.78 1.2 6.0 0.0 16.3 19.4 11.5 0.00 0.00 0.00 0.00 0.00 0.00
1/5/2010 22 338 0 4 6 0 4 6 0 1009.43 1012.00 1007.00 157.05 159.87 155.78 0.6 3.0 0.0 16.7 18.8 15.2 0.00 0.00 0.00 0.00 0.00 0.00
2/5/2010 202 338 0 8 41 0 8 41 0 1010.64 1021.00 1008.00 159.87 159.87 159.87 1.2 7.0 0.0 15.7 20.9 11.6 0.00 0.00 0.00 0.00 0.00 0.00
3/5/2010 22 338 0 6 18 0 6 18 0 1006.77 1009.00 1003.00 177.47 200.95 159.87 0.0 2.0 0.0 11.2 16.1 3.8 0.00 0.00 0.00 0.00 0.00 0.00
4/5/2010 292 338 0 10 37 0 10 37 0 1001.38 1006.00 999.00 203.53 204.25 200.95 0.3 3.0 0.0 9.1 13.8 -0.2 0.00 0.00 0.00 0.00 40.28 40.28
5/5/2010 292 338 0 12 53 0 12 53 0 1005.20 1007.00 1003.00 204.25 204.25 204.25 1.2 6.0 0.0 10.2 17.9 2.4 0.00 0.00 0.00 0.00 4.09 4.09
5/5/2010 0 292 292 21 21 21 21 21 21 1006.00 1006.00 1006.00 204.25 204.25 204.25 0.0 0.0 0.0 5.6 5.6 5.6 0.00 0.00 0.00 0.00 0.00 0.00
5/5/2010 292 338 0 12 53 0 12 53 0 1005.23 1007.00 1003.00 204.25 204.25 204.25 1.1 6.0 0.0 10.1 17.9 1.1 0.00 0.00 0.00 0.00 0.00 0.00
6/5/2010 158 338 0 10 40 0 10 40 0 1006.63 1008.00 1005.00 204.25 204.25 204.25 1.0 6.0 0.0 10.7 15.0 2.6 0.00 0.00 0.00 0.00 0.00 0.00
7/5/2010 338 338 0 4 14 0 4 14 0 1007.96 1008.00 1007.00 204.25 204.25 204.25 0.0 0.0 0.0 10.2 11.7 5.7 0.00 0.00 0.00 0.00 0.00 0.00
7/5/2010 338 338 0 4 6 0 4 6 0 1009.43 1012.00 1007.00 157.05 204.25 155.78 0.6 3.0 0.0 16.7 18.8 10.3 0.00 0.00 0.00 0.00 0.00 0.00
7/5/2010 158 338 0 9 33 0 9 33 0 1007.09 1008.00 1005.00 204.25 204.25 204.25 1.1 6.0 0.0 11.7 15.9 5.7 0.00 0.00 0.00 0.00 0.00 0.00
8/5/2010 202 338 0 6 36 0 6 36 0 1006.55 1009.00 1004.00 205.97 206.23 204.25 1.4 6.0 0.0 15.0 18.6 5.5 0.00 0.00 0.00 0.00 0.00 0.00
8/5/2010 0 0 0 0 0 0 0 0 0 1009.00 1009.00 1009.00 206.23 206.23 206.23 0.0 0.0 0.0 16.3 16.3 16.3 0.00 0.00 0.00 0.00 1.92 1.92
8/5/2010 112 338 0 6 36 0 6 36 0 1006.65 1009.00 1004.00 205.98 206.23 204.25 1.4 6.0 0.0 15.1 18.6 5.5 0.00 0.00 0.00 0.00 1.92 1.92
9/5/2010 112 338 0 9 60 0 9 60 0 1006.23 1009.00 1003.00 204.30 159.87 159.87 0.5 4.0 0.0 14.2 17.5 5.3 0.00 0.00 0.00 0.00 0.00 0.00
9/5/2010 0 90 90 7 7 7 7 7 7 1006.00 1006.00 1006.00 159.87 159.87 159.87 0.0 0.0 0.0 14.9 14.9 14.9 0.00 1.13 1.13 0.00 0.00 0.00
9/5/2010 45 338 0 8 60 0 8 60 0 1006.19 1009.00 1003.00 203.50 210.59 159.87 0.5 4.0 0.0 14.2 17.5 5.3 0.00 1.13 1.13 0.00 0.00 0.00
10/5/2010 45 338 0 6 32 0 6 32 0 1005.17 1006.00 1003.00 210.54 210.59 159.87 1.6 7.0 0.0 15.9 21.3 12.4 0.00 1.13 1.13 0.00 0.00 0.00
10/5/2010 45 202 202 6 5 5 6 5 5 1005.17 1003.00 1003.00 210.54 210.59 210.59 1.6 3.0 3.0 15.9 20.2 20.2 0.00 1.13 1.13 0.00 4.36 4.36
10/5/2010 225 338 0 7 32 0 7 32 0 1004.63 1006.00 1002.00 210.41 210.59 159.87 1.4 7.0 0.0 16.9 21.3 12.4 0.00 0.00 0.00 0.00 0.00 0.00
11/5/2010 225 225 225 8 8 8 8 8 8 1003.95 1006.00 1003.00 210.59 210.59 210.59 2.2 6.0 0.0 17.9 23.2 13.7 0.00 13.19 13.19 0.00 0.00 0.00
12/5/2010 225 338 0 10 42 0 10 42 0 1005.58 1008.00 1003.00 210.84 212.24 210.59 1.1 7.0 0.0 15.0 19.3 7.8 0.00 13.19 13.19 0.00 0.00 0.00
13/5/2010 202 338 0 5 39 0 5 39 0 1007.90 1010.00 1007.00 212.47 215.21 159.87 1.2 7.0 0.0 14.3 19.6 8.0 0.00 0.00 0.00 0.00 0.00 0.00
14/5/2010 248 338 202 2 10 0 2 10 0 1008.23 1011.00 1007.00 215.21 215.21 215.21 0.1 1.0 0.0 12.2 15.6 10.0 0.00 0.50 0.50 0.00 2.97 2.97
15/5/2010 0 338 0 9 46 0 9 46 0 1009.79 1015.00 1007.00 215.22 215.21 215.21 1.2 6.0 0.0 14.6 21.3 9.1 0.00 0.00 0.00 0.00 0.00 0.00
16/5/2010 292 338 0 9 39 0 9 39 0 1017.18 1020.00 1015.00 215.22 215.21 215.21 1.5 7.0 0.0 15.7 23.6 4.1 0.00 0.00 0.00 0.00 0.00 0.00
17/5/2010 338 338 0 4 21 0 4 21 0 1020.85 1022.00 1020.00 215.21 215.21 215.21 0.0 0.0 0.0 14.1 16.5 11.0 0.00 0.00 0.00 0.00 0.00 0.00
17/5/2010 158 338 0 8 40 0 8 40 0 1022.93 1025.00 1015.00 215.21 215.21 215.21 1.8 6.0 0.0 14.5 19.4 7.8 0.00 0.00 0.00 0.00 0.00 0.00
17/5/2010 0 112 112 5 5 5 5 5 5 1025.00 1025.00 1025.00 215.21 215.21 215.21 0.0 0.0 0.0 14.4 14.4 14.4 0.00 0.00 0.00 0.00 0.00 0.00
17/5/2010 112 338 0 8 40 0 8 40 0 1023.05 1026.00 1015.00 215.21 215.21 215.21 1.7 6.0 0.0 14.5 19.4 7.8 0.00 0.00 0.00 0.00 0.00 0.00
18/5/2010 202 338 0 6 30 0 6 30 0 1023.94 1027.00 1021.00 215.22 215.21 215.21 1.4 6.0 0.0 15.3 19.2 7.3 0.00 0.00 0.00 0.00 0.00 0.00
19/5/2010 112 338 0 9 41 0 9 41 0 1020.52 1023.00 1019.00 215.22 215.21 215.21 1.5 6.0 0.0 15.7 21.6 10.7 0.00 0.00 0.00 0.00 0.00 0.00
20/5/2010 202 338 0 6 28 0 6 28 0 1022.17 1024.00 1020.00 215.22 215.21 215.21 1.5 6.0 0.0 17.1 22.4 10.1 0.00 0.00 0.00 0.00 0.00 0.00
21/5/2010 202 338 0 6 32 0 6 32 0 1020.30 1023.00 1018.00 215.22 215.21 215.21 1.5 6.0 0.0 18.2 22.9 14.4 0.00 0.00 0.00 0.00 0.00 0.00
22/5/2010 158 338 0 6 34 0 6 34 0 1017.72 1020.00 1016.00 215.22 215.21 215.21 1.5 6.0 0.0 18.6 22.1 15.4 0.00 0.00 0.00 0.00 0.00 0.00
23/5/2010 158 315 22 9 24 0 9 24 0 1016.39 1018.00 1015.00 215.22 215.21 215.21 1.6 6.0 0.0 16.8 19.8 14.1 0.00 0.00 0.00 0.00 0.00 0.00
23/5/2010 0 158 158 16 16 16 16 16 16 1018.00 1018.00 1018.00 215.21 215.21 215.21 0.0 0.0 0.0 14.1 14.1 14.1 0.00 0.00 0.00 0.00 0.00 0.00
23/5/2010 158 315 22 9 24 0 9 24 0 1016.44 1018.00 1015.00 215.22 215.21 215.21 1.5 6.0 0.0 16.7 19.8 13.8 0.00 0.00 0.00 0.00 0.00 0.00
24/5/2010 158 338 0 12 31 0 12 31 0 1016.74 1018.00 1015.00 215.22 215.21 215.21 1.6 7.0 0.0 15.3 21.9 9.8 0.00 0.00 0.00 0.00 0.00 0.00
25/5/2010 0 292 0 0 12 0 0 12 0 1015.16 1017.00 1013.00 215.22 215.21 215.21 1.6 6.0 0.0 19.2 21.9 9.5 0.00 0.00 0.00 0.00 0.00 0.00
25/5/2010 0 0 0 0 0 0 0 0 0 1014.00 1014.00 1014.00 215.21 215.21 215.21 0.0 0.0 0.0 19.1 19.1 19.1 0.00 0.00 0.00 0.00 0.00 0.00
25/5/2010 0 292 0 0 12 0 0 12 0 1015.10 1017.00 1013.00 215.22 215.21 215.21 1.5 6.0 0.0 19.1 21.9 9.5 0.00 0.00 0.00 0.00 0.00 0.00
26/5/2010 0 292 0 0 0 0 0 0 0 1009.74 1017.00 1008.00 215.22 215.21 215.21 1.8 6.0 0.0 19.7 23.0 15.6 0.00 0.00 0.00 0.00 0.00 0.00
27/5/2010 68 292 22 1 12 0 1 12 0 1010.56 1013.00 1007.00 215.31 215.74 215.21 1.5 6.0 0.0 18.6 21.2 14.9 0.00 0.00 0.00 0.00 0.00 0.00
28/5/2010 22 338 0 6 24 0 6 24 0 1013.41 1018.00 1011.00 215.74 215.74 215.74 0.6 5.0 0.0 18.5 21.7 14.2 0.00 0.00 0.00 0.00 0.53 0.53
29/5/2010 248 338 0 8 33 0 8 33 0 1017.92 1020.00 1017.00 215.74 215.74 215.74 1.7 7.0 0.0 18.9 23.4 11.8 0.00 0.00 0.00 0.00 0.00 0.00
30/5/2010 112 338 0 8 33 0 8 33 0 1018.78 1021.00 1017.00 215.74 215.74 215.74 1.5 7.0 0.0 20.0 25.0 15.7 0.00 0.00 0.00 0.00 0.00 0.00
31/5/2010 112 338 0 11 38 0 11 38 0 1014.52 1018.00 1012.00 215.74 215.74 215.74 1.5 7.0 0.0 23.1 32.5 15.4 0.00 0.00 0.00 0.00 0.00 0.00
1/6/2010 112 112 112 18 18 18 18 18 18 1014.16 1015.00 1013.00 215.74 215.74 215.74 0.2 2.0 0.0 16.3 21.8 15.3 0.00 0.00 0.00 0.00 0.00 0.00
1/6/2010 112 112 112 18 18 18 18 18 18 1014.16 1014.00 1014.00 215.74 215.74 215.74 0.2 2.0 2.0 16.3 21.8 21.8 0.00 0.00 0.00 0.00 0.00 0.00
1/6/2010 112 338 22 17 33 0 17 33 0 1013.36 1015.00 1011.00 215.74 215.74 215.74 1.2 7.0 0.0 18.0 24.7 14.8 0.00 0.00 0.00 0.00 0.00 0.00
2/6/2010 90 338 0 9 17 0 9 17 0 1012.03 1014.00 1010.00 215.74 215.74 215.74 1.2 7.0 0.0 19.2 22.7 15.2 0.00 0.00 0.00 0.00 0.00 0.00
3/6/2010 112 338 0 8 29 0 8 29 0 1010.87 1013.00 1009.00 215.74 215.74 215.74 1.6 7.0 0.0 19.8 23.3 15.4 0.00 0.00 0.00 0.00 0.00 0.00
4/6/2010 158 338 0 9 30 0 9 30 0 1014.86 1018.00 1012.00 215.74 215.74 215.74 1.6 6.0 0.0 20.1 24.1 17.2 0.00 0.00 0.00 0.00 0.00 0.00
4/6/2010 158 158 90 21 21 4 21 21 4 1018.00 1023.00 1018.00 215.74 215.74 148.38 0.0 0.0 0.0 17.2 17.2 -0.8 0.00 0.00 0.00 0.00 0.00 0.00
4/6/2010 158 338 0 9 30 0 9 30 0 1014.97 1018.00 1012.00 215.74 215.74 215.74 1.6 6.0 0.0 20.0 24.1 16.6 0.00 0.00 0.00 0.00 0.00 0.00
6/6/2010 112 338 0 7 27 0 7 27 0 1015.84 1017.00 1015.00 222.52 222.94 215.74 0.6 3.0 0.0 20.1 22.5 14.5 0.00 0.00 0.00 0.00 0.00 0.00
7/6/2010 158 338 0 8 38 0 8 38 0 1013.88 1017.00 1011.00 222.93 222.94 215.74 1.2 3.0 0.0 19.7 22.7 16.7 0.00 0.00 0.00 0.00 0.00 0.00
8/6/2010 158 338 0 11 39 0 11 39 0 1007.57 1011.00 1005.00 222.94 222.94 222.94 1.3 7.0 0.0 19.8 22.8 16.9 0.00 0.00 0.00 0.00 0.00 0.00
9/6/2010 112 338 22 9 21 0 9 21 0 1003.98 1006.00 1002.00 222.94 222.94 222.94 0.0 0.0 0.0 19.5 20.5 16.5 0.00 0.00 0.00 0.00 0.00 0.00
9/6/2010 112 68 68 9 10 10 9 10 10 1003.98 1002.00 1002.00 222.94 222.94 222.94 0.0 0.0 0.0 19.5 19.1 19.1 0.00 0.00 0.00 0.00 0.00 0.00
9/6/2010 112 338 0 9 28 0 9 28 0 1001.98 1006.00 999.00 233.08 237.73 222.94 0.0 0.0 0.0 19.1 20.9 14.8 0.00 0.00 0.00 0.00 0.00 0.00
10/6/2010 112 338 0 10 31 0 10 31 0 1000.00 1000.00 1000.00 237.73 237.73 237.73 0.0 0.0 0.0 19.3 20.2 14.9 0.00 0.00 0.00 0.00 14.79 14.79
10/6/2010 202 338 0 7 41 0 7 41 0 1016.55 1027.00 998.00 216.54 238.85 237.73 1.5 7.0 0.0 18.0 32.5 7.3 0.00 0.00 0.00 0.00 14.79 14.79
10/6/2010 202 292 292 7 9 9 7 9 9 1016.55 1005.00 1005.00 216.54 238.85 238.85 1.5 0.0 0.0 18.0 20.7 20.7 0.00 0.00 0.00 0.00 1.12 1.12
10/6/2010 180 338 0 7 41 0 7 41 0 1016.50 1027.00 998.00 216.65 238.85 237.73 1.5 7.0 0.0 18.0 32.5 7.3 0.00 0.00 0.00 0.00 1.12 1.12
11/6/2010 112 338 0 10 41 0 10 41 0 1008.29 1011.00 1007.00 238.93 239.12 238.85 0.4 4.0 0.0 18.9 22.5 14.5 0.00 0.00 0.00 0.00 1.12 1.12
12/6/2010 112 338 0 10 35 0 10 35 0 1010.19 1011.00 1009.00 239.12 239.12 239.12 1.8 6.0 0.0 18.1 22.5 13.5 0.00 0.00 0.00 0.00 0.26 0.26
12/6/2010 112 135 135 10 277 4 10 277 277 1010.19 1010.00 1010.00 239.12 239.12 239.12 1.8 1.0 1.0 18.1 16.1 16.1 0.00 0.00 0.00 0.00 0.00 0.00
12/6/2010 158 338 0 10 277 0 10 277 0 1010.42 1013.00 1009.00 239.12 239.12 239.12 1.4 6.0 0.0 18.9 22.7 13.5 0.00 0.00 0.00 0.00 0.00 0.00
13/6/2010 158 338 0 9 37 0 9 37 0 1012.90 1014.00 1012.00 239.10 239.12 222.94 1.5 6.0 0.0 21.4 23.2 15.9 0.00 0.00 0.00 0.00 0.00 0.00
14/6/2010 158 338 0 6 32 0 6 32 0 1011.91 1014.00 1010.00 240.74 252.00 239.12 0.6 5.0 0.0 18.7 23.5 13.3 0.00 0.00 0.00 0.00 0.00 0.00
15/6/2010 292 338 0 3 14 0 3 14 0 1011.58 1013.00 1011.00 252.00 252.00 252.00 0.0 0.0 0.0 16.2 16.8 12.8 0.00 0.00 0.00 0.00 12.61 12.61
15/6/2010 292 338 338 3 5 5 3 5 5 1011.58 1011.00 1011.00 252.00 252.00 252.00 0.0 0.0 0.0 16.2 14.9 14.9 0.00 0.00 0.00 0.00 12.88 12.88
15/6/2010 202 338 0 8 36 0 8 36 0 1010.90 1013.00 1009.00 252.17 252.33 252.00 1.4 6.0 0.0 16.8 22.6 10.7 0.00 0.00 0.00 0.00 12.88 12.88
16/6/2010 202 338 0 9 41 0 9 41 0 1010.65 1012.00 1009.00 252.97 257.48 252.33 1.4 6.0 0.0 16.9 21.8 10.7 0.00 0.00 0.00 0.00 0.59 0.59
17/6/2010 202 338 0 9 36 0 9 36 0 1012.62 1016.00 1011.00 257.48 257.48 257.48 1.2 7.0 0.0 17.6 24.3 9.2 0.00 0.00 0.00 0.00 5.22 5.22
18/6/2010 202 338 0 7 33 0 7 33 0 1013.73 1016.00 1011.00 257.48 257.48 257.48 1.4 6.0 0.0 18.8 23.2 11.3 0.00 0.00 0.00 0.00 0.00 0.00
19/6/2010 292 338 0 9 49 0 9 49 0 1008.78 1013.00 1005.00 257.48 257.48 257.48 1.3 6.0 0.0 20.6 27.2 13.1 0.00 0.00 0.00 0.00 0.00 0.00
20/6/2010 315 338 0 12 49 0 12 49 0 1007.22 1013.00 1005.00 257.48 257.48 257.48 1.4 7.0 0.0 20.2 25.8 12.2 0.00 0.00 0.00 0.00 0.00 0.00
21/6/2010 292 338 0 11 36 0 11 36 0 1014.24 1016.00 1013.00 257.48 257.48 257.48 1.6 6.0 0.0 16.6 24.4 7.9 0.00 0.00 0.00 0.00 0.00 0.00
21/6/2010 0 112 112 13 13 13 13 13 13 1016.00 1016.00 1016.00 257.48 257.48 257.48 0.0 0.0 0.0 15.6 15.6 15.6 0.00 0.00 0.00 0.00 0.00 0.00
21/6/2010 112 338 0 11 36 0 11 36 0 1014.31 1016.00 1013.00 257.48 257.48 257.48 1.6 6.0 0.0 16.6 24.4 7.9 0.00 0.00 0.00 0.00 0.00 0.00
22/6/2010 158 338 0 10 43 0 10 43 0 1017.54 1019.00 1016.00 257.48 257.48 257.48 1.5 6.0 0.0 17.7 21.2 13.6 0.00 0.00 0.00 0.00 0.00 0.00
23/6/2010 202 338 0 7 40 0 7 40 0 1017.35 1019.00 1016.00 257.48 257.48 257.48 1.4 6.0 0.0 19.5 129.2 15.6 0.00 0.00 0.00 0.00 0.00 0.00
24/6/2010 202 338 0 6 32 0 6 32 0 1015.77 1018.00 1014.00 257.48 257.48 257.48 1.5 6.0 0.0 20.1 23.2 16.4 0.00 0.00 0.00 0.00 0.00 0.00
25/6/2010 202 338 0 5 28 0 5 28 0 1013.62 1016.00 1011.00 257.48 257.48 257.48 1.4 6.0 0.0 20.9 24.4 15.3 0.00 0.00 0.00 0.00 0.00 0.00
26/6/2010 202 338 0 5 31 0 5 31 0 1012.21 1014.00 1011.00 257.48 257.48 257.48 1.6 6.0 0.0 21.4 25.2 18.5 0.00 0.00 0.00 0.00 0.00 0.00
26/6/2010 202 112 112 5 6 6 5 6 6 1012.21 1011.00 1011.00 257.48 257.48 257.48 1.6 0.0 0.0 21.4 23.5 23.5 0.00 0.00 0.00 0.00 0.00 0.00
26/6/2010 112 338 0 5 31 0 5 31 0 1012.36 1015.00 1011.00 257.46 257.48 239.12 1.3 6.0 0.0 21.6 25.2 18.5 0.00 0.00 0.00 0.00 0.00 0.00
27/6/2010 202 338 0 6 27 0 6 27 0 1014.84 1017.00 1013.00 257.48 257.48 257.48 1.5 6.0 0.0 23.4 27.3 18.6 0.00 0.00 0.00 0.00 0.00 0.00
28/6/2010 202 338 0 6 26 0 6 26 0 1016.24 1018.00 1015.00 257.48 257.48 257.48 1.4 6.0 0.0 24.4 28.7 19.7 0.00 0.00 0.00 0.00 0.00 0.00
29/6/2010 338 338 338 5 5 5 5 5 5 1017.00 1017.00 1017.00 257.48 257.48 257.48 0.0 0.0 0.0 23.1 23.1 23.1 0.00 0.00 0.00 0.00 0.00 0.00
28/6/2010 315 338 0 6 26 0 6 26 0 1016.28 1018.00 1015.00 257.48 257.48 257.48 1.3 6.0 0.0 24.3 28.7 19.7 0.00 0.00 0.00 0.00 0.00 0.00
29/6/2010 202 338 0 6 31 0 6 31 0 1016.73 1018.00 1015.00 257.48 257.48 257.48 1.3 6.0 0.0 24.6 29.8 20.8 0.00 0.00 0.00 0.00 0.00 0.00
30/6/2010 202 338 0 6 24 0 6 24 0 1016.66 1018.00 1015.00 257.48 257.48 257.48 1.5 6.0 0.0 24.2 27.9 19.9 0.00 0.00 0.00 0.00 0.00 0.00
1/7/2010 158 338 0 7 34 0 7 34 0 1014.50 1016.00 1013.00 257.48 257.48 257.48 1.5 6.0 0.0 23.1 26.0 20.6 0.00 0.00 0.00 0.00 0.00 0.00
2/7/2010 112 135 68 3 6 0 3 6 0 1014.63 1015.00 1014.00 257.48 257.48 257.48 0.0 0.0 0.0 22.2 22.2 22.2 0.00 0.00 0.00 0.00 0.00 0.00
2/7/2010 112 338 0 7 34 0 7 34 0 1014.50 1016.00 1013.00 257.48 2640.46 257.48 1.5 6.0 0.0 23.1 26.0 20.6 0.00 0.00 0.00 0.00 0.00 0.00
2/7/2010 158 338 0 6 30 0 6 30 0 1014.08 1015.00 1013.00 355.11 257.48 257.48 1.5 6.0 0.0 23.6 27.4 19.8 0.00 0.00 0.00 0.00 0.00 0.00
3/7/2010 158 338 0 7 31 0 7 31 0 1015.51 1017.00 1013.00 257.48 257.48 257.48 1.4 6.0 0.0 24.2 26.7 19.8 0.00 0.00 0.00 0.00 0.00 0.00
4/7/2010 202 338 0 6 32 0 6 32 0 1017.99 1019.00 1016.00 257.48 257.48 257.48 1.2 6.0 0.0 25.0 29.0 21.7 0.00 0.00 0.00 0.00 0.00 0.00
5/7/2010 22 338 0 7 37 0 7 37 0 1017.26 1019.00 1015.00 257.48 257.48 257.48 1.5 6.0 0.0 25.6 31.0 20.1 0.00 0.00 0.00 0.00 0.00 0.00
6/7/2010 202 338 0 7 37 0 7 37 0 1017.69 1019.00 1016.00 257.48 257.48 257.48 1.5 6.0 0.0 24.8 29.5 18.8 0.00 0.00 0.00 0.00 0.00 0.00
7/7/2010 202 338 0 7 32 0 7 32 0 1017.20 1018.00 1015.00 257.48 257.48 257.48 1.5 6.0 0.0 24.2 27.0 21.7 0.00 0.00 0.00 0.00 0.00 0.00
8/7/2010 202 338 0 7 32 0 7 32 0 1017.84 1019.00 1017.00 257.48 257.48 257.48 0.7 3.0 0.0 24.8 28.3 22.3 0.00 0.00 0.00 0.00 0.00 0.00
9/7/2010 112 112 112 4 4 4 4 4 4 1018.00 1018.00 1018.00 257.48 257.48 257.48 0.0 0.0 0.0 24.1 24.1 24.1 0.00 0.00 0.00 0.00 0.00 0.00
8/7/2010 112 338 0 7 32 0 7 32 0 1017.82 1019.00 1017.00 257.48 257.48 257.48 0.7 3.0 0.0 24.7 28.3 22.3 0.00 0.00 0.00 0.00 0.00 0.00
9/7/2010 158 338 0 7 31 0 7 31 0 1016.86 1018.00 1015.00 257.48 257.48 257.48 0.6 3.0 0.0 25.0 29.1 21.0 0.00 0.00 0.00 0.00 0.00 0.00
10/7/2010 158 338 0 8 35 0 8 35 0 1017.29 1019.00 1015.00 257.48 257.48 257.48 0.7 3.0 0.0 23.9 26.4 21.9 0.00 0.00 0.00 0.00 0.00 0.00
11/7/2010 158 338 0 5 28 0 5 28 0 1015.63 1018.00 1014.00 257.48 257.48 257.48 0.7 3.0 0.0 25.9 30.4 20.8 0.00 0.00 0.00 0.00 0.00 0.00
12/7/2010 202 338 0 7 27 0 7 27 0 1013.20 1016.00 1011.00 257.48 257.48 257.48 0.5 3.0 0.0 26.5 29.5 22.5 0.00 0.00 0.00 0.00 0.00 0.00
13/7/2010 158 338 0 9 31 0 9 31 0 1010.94 1013.00 1009.00 257.48 257.48 257.48 0.7 3.0 0.0 25.4 28.4 22.5 0.00 0.00 0.00 0.00 0.00 0.00
14/7/2010 112 338 0 9 37 0 9 37 0 1007.99 1010.00 1007.00 257.48 257.48 257.48 0.6 3.0 0.0 25.1 27.7 22.7 0.00 0.00 0.00 0.00 0.00 0.00
15/7/2010 158 338 0 9 37 0 9 37 0 1012.56 1018.00 1008.00 257.48 257.48 257.48 0.7 3.0 0.0 24.8 27.1 22.6 0.00 0.00 0.00 0.00 0.00 0.00
16/7/2010 158 315 0 6 27 0 6 27 0 1013.44 1015.00 1012.00 257.48 257.48 257.48 0.6 3.0 0.0 24.8 27.6 21.8 0.00 0.00 0.00 0.00 0.00 0.00
17/7/2010 22 338 0 8 34 0 8 34 0 1016.92 1019.00 1015.00 257.48 257.48 257.48 0.7 3.0 0.0 25.8 29.3 21.0 0.00 0.00 0.00 0.00 0.00 0.00
18/7/2010 202 338 0 9 36 0 9 36 0 1018.09 1020.00 1015.00 257.48 257.48 257.48 0.7 2.0 0.0 24.9 28.0 21.0 0.00 0.00 0.00 0.00 0.00 0.00
19/7/2010 112 315 22 9 36 0 9 36 0 1015.24 1017.00 1013.00 257.48 257.48 257.48 0.5 3.0 0.0 24.8 27.8 22.9 0.00 0.00 0.00 0.00 0.00 0.00
20/7/2010 158 338 0 7 36 0 7 36 0 1012.04 1015.00 1009.00 257.48 257.48 257.48 0.6 3.0 0.0 25.2 27.9 23.3 0.00 0.00 0.00 0.00 0.00 0.00
21/7/2010 112 338 0 11 36 0 11 36 0 1008.33 1010.00 1007.00 257.48 257.48 257.48 0.7 3.0 0.0 24.9 28.1 22.4 0.00 0.00 0.00 0.00 0.00 0.00
22/7/2010 112 338 0 9 24 0 9 24 0 1010.78 1014.00 1008.00 257.73 258.07 257.48 0.0 1.0 0.0 23.4 52.4 20.7 0.00 0.00 0.00 0.00 0.00 0.00
23/7/2010 202 338 0 10 41 0 10 41 0 1016.48 1019.00 1014.00 259.65 259.99 258.07 0.5 3.0 0.0 23.1 28.2 17.9 0.00 0.00 0.00 0.00 0.53 0.53
24/7/2010 202 338 0 9 35 0 9 35 0 1018.27 1020.00 1015.00 259.99 259.99 259.99 0.7 3.0 0.0 22.6 27.5 15.2 0.00 0.00 0.00 0.00 1.92 1.92
25/7/2010 225 338 0 9 29 0 9 29 0 1013.57 1016.00 1008.00 259.99 259.99 259.99 0.7 3.0 0.0 23.4 28.7 18.2 0.00 0.00 0.00 0.00 0.00 0.00
26/7/2010 202 338 0 9 45 0 9 45 0 1012.32 1015.00 1011.00 259.99 259.99 259.99 0.7 3.0 0.0 23.4 28.3 18.3 0.00 0.00 0.00 0.00 0.00 0.00
27/7/2010 202 338 0 9 38 0 9 38 0 1015.55 1017.00 1014.00 259.99 259.99 259.99 0.7 3.0 0.0 23.7 27.4 20.4 0.00 0.00 0.00 0.00 0.00 0.00
28/7/2010 202 338 0 8 35 0 8 35 0 1016.64 1019.00 1014.00 259.99 259.99 259.99 0.7 3.0 0.0 24.3 27.4 21.4 0.00 0.00 0.00 0.00 0.00 0.00
29/7/2010 202 338 0 9 41 0 9 41 0 1011.79 1015.00 1009.00 259.99 259.99 259.99 0.6 3.0 0.0 24.8 29.7 21.8 0.00 0.00 0.00 0.00 0.00 0.00
30/7/2010 158 338 0 11 48 0 11 48 0 1011.85 1012.00 1011.00 259.99 259.99 259.99 0.9 3.0 0.0 23.0 27.4 17.7 0.00 0.00 0.00 0.00 0.00 0.00
30/7/2010 158 338 0 7 42 0 7 42 0 1017.18 1027.00 1007.00 216.20 259.99 259.99 1.4 7.0 0.0 18.1 32.5 7.3 0.00 0.00 0.00 0.00 0.00 0.00
31/7/2010 112 338 0 6 36 0 6 36 0 1014.01 1015.00 1013.00 259.99 259.99 259.99 0.1 2.0 0.0 23.5 25.6 21.7 0.00 0.00 0.00 0.00 0.00 0.00
31/7/2010 202 338 0 7 41 0 7 41 0 1017.18 1027.00 1007.00 216.80 259.99 259.99 1.4 7.0 0.0 18.2 32.5 7.3 0.00 0.00 0.00 0.00 0.00 0.00
1/8/2010 202 338 0 9 38 0 9 38 0 1014.43 1016.00 1012.00 260.01 260.78 259.99 0.6 3.0 0.0 24.4 26.7 19.4 0.00 0.00 0.00 0.00 0.00 0.00
2/8/2010 112 338 0 12 36 0 12 36 0 1013.55 1015.00 1011.00 262.25 269.30 260.78 0.5 3.0 0.0 23.2 26.9 19.6 0.00 0.00 0.00 0.00 0.26 0.26
3/8/2010 248 338 0 8 39 0 8 39 0 1014.20 1017.00 1011.00 269.30 269.30 269.30 0.4 3.0 0.0 22.9 29.0 17.8 0.00 0.00 0.00 0.00 3.57 3.57
4/8/2010 225 225 225 8 8 8 8 8 8 1014.00 1014.00 1014.00 269.30 269.30 269.30 0.0 0.0 0.0 23.8 23.8 23.8 0.00 0.00 0.00 0.00 6.34 6.34
3/8/2010 248 338 0 8 39 0 8 39 0 1014.18 1017.00 1011.00 269.30 269.30 269.30 0.4 3.0 0.0 22.9 29.0 17.8 0.00 0.00 0.00 0.00 6.34 6.34
4/8/2010 158 338 0 10 35 0 10 35 0 1011.56 1014.00 1009.00 269.30 269.30 269.30 0.7 3.0 0.0 22.3 27.1 17.3 0.00 0.00 0.00 0.00 6.34 6.34
4/8/2010 158 180 180 10 9 9 10 9 9 1011.56 1009.00 1009.00 269.30 269.30 269.30 0.7 0.0 0.0 22.3 25.0 25.0 0.00 0.00 0.00 0.00 0.00 0.00
4/8/2010 202 338 0 9 35 0 9 35 0 1011.27 1014.00 1009.00 269.30 269.30 269.30 0.6 3.0 0.0 22.6 27.1 17.3 0.00 0.00 0.00 0.00 0.00 0.00
5/8/2010 292 338 0 10 37 0 10 37 0 1009.08 1012.00 1007.00 269.30 269.30 269.30 0.6 3.0 0.0 24.3 32.0 17.3 0.00 0.00 0.00 0.00 0.00 0.00
6/8/2010 202 338 0 8 42 0 8 42 0 1013.82 1016.00 1011.00 269.30 269.30 269.30 0.6 3.0 0.0 21.8 25.6 16.4 0.00 0.00 0.00 0.00 0.00 0.00
7/8/2010 202 338 0 7 42 0 7 42 0 1016.21 1018.00 1015.00 269.30 269.30 269.30 0.6 3.0 0.0 23.7 26.7 21.5 0.00 0.00 0.00 0.00 0.00 0.00
8/8/2010 202 338 0 7 40 0 7 40 0 1016.40 1018.00 1015.00 269.30 269.30 269.30 0.4 3.0 0.0 23.7 26.3 21.5 0.00 0.00 0.00 0.00 0.00 0.00
9/8/2010 202 338 0 6 33 0 6 33 0 1014.37 1016.00 1013.00 269.30 269.30 269.30 0.5 2.0 0.0 25.4 29.0 22.0 0.00 0.00 0.00 0.00 0.00 0.00
10/8/2010 112 338 0 9 32 0 9 32 0 1014.90 1016.00 1013.00 269.30 269.30 269.30 0.3 2.0 0.0 24.5 27.3 22.3 0.00 0.00 0.00 0.00 0.00 0.00
11/8/2010 112 338 0 10 369 0 10 369 0 1014.44 1016.00 1013.00 269.30 269.30 269.30 0.4 2.0 0.0 24.4 28.3 18.2 0.00 0.00 0.00 0.00 0.00 0.00
11/8/2010 112 90 90 10 9 9 10 9 9 1014.44 1013.00 1013.00 269.30 269.30 269.30 0.4 0.0 0.0 24.4 23.2 23.2 0.00 0.00 0.00 0.00 0.00 0.00
11/8/2010 90 338 0 10 369 0 10 369 0 1014.41 1016.00 1013.00 269.30 269.30 269.30 0.4 2.0 0.0 24.3 28.3 18.2 0.00 0.00 0.00 0.00 0.00 0.00
12/8/2010 112 338 0 11 44 0 11 44 0 1013.04 1015.00 1011.00 271.88 295.52 269.30 0.4 3.0 0.0 22.8 27.1 12.2 0.00 0.00 0.00 0.00 0.00 0.00
13/8/2010 338 338 0 1 15 0 1 15 0 1013.94 1015.00 1012.00 295.43 295.52 269.30 0.0 1.0 0.0 20.3 24.0 17.3 0.00 0.00 0.00 0.00 0.00 0.00
14/8/2010 248 338 0 7 369 0 7 369 0 1013.13 1015.00 1011.00 295.52 295.52 295.52 0.5 2.0 0.0 20.3 24.0 15.0 0.00 0.00 0.00 0.00 0.00 0.00
15/8/2010 158 338 0 7 32 0 7 32 0 1014.81 1017.00 1013.00 295.52 295.52 295.52 0.4 3.0 0.0 20.2 24.8 14.8 0.00 0.00 0.00 0.00 0.00 0.00
15/8/2010 158 180 180 9 9 9 9 9 9 1015.00 1015.00 1015.00 295.52 295.52 295.52 1.0 1.0 1.0 24.4 24.4 24.4 0.00 0.00 0.00 0.00 0.00 0.00
15/8/2010 202 338 0 7 37 0 7 37 0 1014.98 1018.00 1013.00 295.52 295.52 295.52 0.3 3.0 0.0 20.9 24.8 14.8 0.00 0.00 0.00 0.00 0.00 0.00
16/8/2010 158 338 0 8 34 0 8 34 0 1018.70 1021.00 1017.00 295.52 295.52 295.52 0.2 3.0 0.0 20.7 23.8 15.5 0.00 0.00 0.00 0.00 0.00 0.00
17/8/2010 202 338 0 4 14 0 4 14 0 1019.52 1020.00 1019.00 295.52 295.52 295.52 0.0 0.0 0.0 22.7 22.8 21.1 0.00 0.00 0.00 0.00 0.00 0.00
17/8/2010 202 22 22 4 4 4 4 4 4 1019.52 1019.00 1019.00 295.52 295.52 295.52 0.0 0.0 0.0 22.7 22.5 22.5 0.00 0.00 0.00 0.00 0.00 0.00
17/8/2010 202 338 0 7 37 0 7 37 0 1016.89 1020.00 1013.00 295.52 295.52 295.52 0.5 2.0 0.0 22.9 26.1 20.0 0.00 0.00 0.00 0.00 0.00 0.00
18/8/2010 202 338 0 8 37 0 8 37 0 1012.32 1015.00 1010.00 295.52 295.52 295.52 0.4 3.0 0.0 23.8 26.8 21.1 0.00 0.00 0.00 0.00 0.00 0.00
19/8/2010 68 338 0 7 33 0 7 33 0 1013.33 1017.00 1011.00 301.06 329.92 295.52 0.1 1.0 0.0 21.3 25.7 -24.3 0.00 0.00 0.00 0.00 0.00 0.00
20/8/2010 90 90 90 9 9 9 9 9 9 1018.06 1022.00 1015.00 329.93 329.92 329.92 0.5 2.0 0.0 23.1 26.6 19.5 0.00 5.36 5.36 0.00 34.41 34.41
21/8/2010 90 338 0 8 19 0 8 19 0 1021.31 1023.00 1019.00 329.93 329.92 329.92 0.5 2.0 0.0 26.0 30.1 21.6 0.00 5.36 5.36 0.00 34.41 34.41
22/8/2010 202 338 0 5 32 0 5 32 0 1016.93 1020.00 1013.00 329.93 329.92 329.92 0.5 2.0 0.0 25.7 28.5 22.6 0.00 5.36 5.36 0.00 34.41 34.41
23/8/2010 112 338 0 6 26 0 6 26 0 1010.06 1014.00 1007.00 329.93 329.92 329.92 0.0 0.0 0.0 25.2 28.8 23.1 0.00 5.36 5.36 0.00 34.41 34.41
24/8/2010 22 338 0 11 36 0 11 36 0 1010.42 1014.00 1007.00 329.93 329.92 329.92 0.0 0.0 0.0 24.1 28.1 20.5 0.00 5.36 5.36 0.00 34.41 34.41
24/8/2010 112 338 0 7 41 0 7 41 0 1017.23 1027.00 1007.00 217.31 329.92 275.51 1.4 7.0 0.0 18.1 32.5 7.3 0.00 5.36 5.36 0.00 34.41 34.41
25/8/2010 202 338 0 5 185 0 5 185 0 1016.33 1018.00 1013.00 329.93 329.92 329.92 0.0 0.0 0.0 25.2 27.9 21.4 0.00 0.00 0.00 0.00 0.00 0.00
26/8/2010 202 338 0 5 31 0 5 31 0 1014.59 1017.00 1011.00 329.93 329.92 329.92 0.0 0.0 0.0 25.8 28.0 22.6 0.00 0.00 0.00 0.00 0.00 0.00
27/8/2010 202 338 0 10 33 0 10 33 0 1009.93 1013.00 1007.00 329.93 329.92 329.92 0.0 0.0 0.0 29.1 38.3 -29.9 0.00 0.00 0.00 0.00 0.00 0.00
28/8/2010 112 112 112 21 21 21 21 21 21 1013.54 1015.00 1011.00 329.93 329.92 329.92 0.0 0.0 0.0 23.6 30.4 18.8 0.00 0.00 0.00 0.00 0.00 0.00
29/8/2010 112 112 112 21 21 21 21 21 21 1014.93 1017.00 1013.00 329.93 329.92 329.92 0.0 0.0 0.0 20.2 25.3 14.7 0.00 0.00 0.00 0.00 0.00 0.00
30/8/2010 112 202 112 21 28 3 21 28 3 1013.94 1015.00 1012.00 329.93 329.92 329.92 0.0 0.0 0.0 19.5 25.0 13.5 0.00 0.00 0.00 0.00 0.00 0.00
31/8/2010 202 338 22 10 37 0 10 37 0 1012.68 1015.00 5.00 329.93 329.92 329.92 0.0 0.0 0.0 22.2 24.6 19.6 0.00 0.00 0.00 0.00 0.00 0.00
1/9/2010 202 315 90 10 28 0 10 28 0 1010.41 1012.00 1009.00 329.93 329.92 329.92 0.0 0.0 0.0 22.6 25.2 19.3 0.00 0.00 0.00 0.00 0.00 0.00
2/9/2010 112 338 0 7 31 0 7 31 0 1011.45 1015.00 1009.00 329.93 329.92 329.92 0.0 0.0 0.0 22.5 25.7 19.6 0.00 0.00 0.00 0.00 0.00 0.00
3/9/2010 202 338 0 7 35 0 7 35 0 1014.58 1016.00 1013.00 329.93 329.92 329.92 0.0 0.0 0.0 23.1 25.9 14.7 0.00 0.00 0.00 0.00 0.00 0.00
4/9/2010 202 338 0 6 31 0 6 31 0 1014.28 1016.00 1013.00 329.93 329.92 329.92 0.0 0.0 0.0 23.6 27.3 19.4 0.00 0.00 0.00 0.00 0.00 0.00
4/9/2010 202 158 158 6 5 5 6 5 5 1014.28 1014.00 1014.00 329.93 329.92 329.92 0.0 0.0 0.0 23.6 24.0 24.0 0.00 0.00 0.00 0.00 0.00 0.00
4/9/2010 158 338 0 6 31 0 6 31 0 1014.27 1016.00 1013.00 329.93 329.92 329.92 0.0 0.0 0.0 23.6 27.3 19.4 0.00 0.00 0.00 0.00 0.00 0.00
5/9/2010 158 338 0 7 33 0 7 33 0 1013.59 1015.00 1011.00 329.93 329.92 329.92 0.0 0.0 0.0 23.9 26.9 1.2 0.00 0.00 0.00 0.00 0.00 0.00
6/9/2010 202 338 0 6 32 0 6 32 0 1010.39 1014.00 1007.00 329.93 329.92 329.92 0.0 0.0 0.0 23.9 26.4 21.7 0.00 0.00 0.00 0.00 0.00 0.00
6/9/2010 0 0 0 9 9 9 9 9 9 1008.00 1008.00 1008.00 329.92 329.92 329.92 0.0 0.0 0.0 23.4 23.4 23.4 0.00 0.00 0.00 0.00 0.00 0.00
6/9/2010 112 338 0 6 32 0 6 32 0 1010.28 1014.00 1007.00 329.93 329.92 329.92 0.0 0.0 0.0 23.9 26.4 21.7 0.00 0.00 0.00 0.00 0.00 0.00
7/9/2010 158 338 0 10 32 0 10 32 0 1002.73 1011.00 998.00 330.34 331.84 329.92 0.0 0.0 0.0 23.3 27.1 17.6 0.00 0.00 0.00 0.00 0.00 0.00
8/9/2010 292 338 0 11 40 0 11 40 0 1007.68 1013.00 1002.00 331.84 331.84 331.84 0.0 0.0 0.0 22.0 28.8 11.0 0.00 0.00 0.00 0.00 1.92 1.92
9/9/2010 338 338 0 9 41 0 9 41 0 1015.78 1020.00 1013.00 331.84 331.84 331.84 0.0 0.0 0.0 21.6 27.1 16.9 0.00 0.00 0.00 0.00 0.00 0.00
10/9/2010 338 338 0 8 37 0 8 37 0 1019.15 1020.00 1017.00 331.84 331.84 331.84 0.0 0.0 0.0 20.8 25.4 13.4 0.00 0.00 0.00 0.00 0.00 0.00
11/9/2010 0 338 0 6 33 0 6 33 0 1016.22 1019.00 1015.00 331.84 331.84 331.84 0.0 0.0 0.0 21.6 24.7 18.0 0.00 0.00 0.00 0.00 0.00 0.00
12/9/2010 202 338 0 6 32 0 6 32 0 1017.78 1022.00 1015.00 331.84 331.84 331.84 0.0 0.0 0.0 22.6 25.5 19.9 0.00 0.00 0.00 0.00 0.00 0.00
13/9/2010 202 338 0 7 48 0 7 48 0 1021.10 1022.00 1019.00 331.84 331.84 331.84 0.0 0.0 0.0 22.1 26.7 16.8 0.00 0.00 0.00 0.00 0.00 0.00
14/9/2010 158 338 0 8 32 0 8 32 0 1021.20 1023.00 1020.00 331.84 331.84 331.84 0.0 0.0 0.0 21.8 25.6 15.5 0.00 0.00 0.00 0.00 0.00 0.00
15/9/2010 202 338 0 7 25 0 7 25 0 1017.52 1021.00 1014.00 331.84 331.84 331.84 0.0 0.0 0.0 22.3 25.2 17.8 0.00 0.00 0.00 0.00 0.00 0.00
16/9/2010 158 338 0 6 30 0 6 30 0 1012.82 1015.00 1011.00 331.84 331.84 331.84 0.0 0.0 0.0 22.7 25.5 20.6 0.00 0.00 0.00 0.00 0.00 0.00
17/9/2010 112 338 0 9 41 0 9 41 0 1009.43 1011.00 1007.00 337.43 358.85 331.84 0.0 0.0 0.0 19.8 23.4 12.5 0.00 0.00 0.00 0.00 0.00 0.00
18/9/2010 248 338 0 6 28 0 6 28 0 1011.69 1014.00 1009.00 358.97 359.05 358.85 0.0 0.0 0.0 18.9 23.0 14.0 0.00 0.00 0.00 0.00 26.94 26.94
19/9/2010 292 338 0 7 33 0 7 33 0 1014.97 1016.00 1013.00 359.05 359.05 359.05 0.0 0.0 0.0 19.9 25.9 12.5 0.00 0.00 0.00 0.00 0.26 0.26
20/9/2010 158 338 0 7 41 0 7 41 0 1015.59 1016.00 1015.00 359.14 359.38 359.05 0.0 0.0 0.0 20.1 23.6 16.0 0.00 0.00 0.00 0.00 0.00 0.00
21/9/2010 68 338 0 8 32 0 8 32 0 1015.58 1018.00 1013.00 382.80 387.38 359.38 0.0 0.0 0.0 20.1 23.4 16.2 0.00 0.00 0.00 0.00 0.26 0.26
22/9/2010 158 338 0 9 32 0 9 32 0 1018.18 1019.00 1017.00 387.38 387.38 387.38 0.0 0.0 0.0 20.6 129.2 16.9 0.00 0.00 0.00 0.00 28.00 28.00
23/9/2010 202 338 0 5 23 0 5 23 0 1014.25 1018.00 1009.00 387.45 388.50 359.38 0.0 0.0 0.0 22.1 24.7 19.1 0.00 0.00 0.00 0.00 0.00 0.00
24/9/2010 292 338 0 10 49 0 10 49 0 1006.53 1010.00 1004.00 388.50 388.50 387.38 0.0 0.0 0.0 21.1 26.6 15.1 0.00 0.00 0.00 0.00 0.00 0.00
25/9/2010 292 338 0 9 33 0 9 33 0 1006.54 1008.00 1005.00 388.50 388.50 388.50 0.0 0.0 0.0 18.6 24.6 10.0 0.00 0.00 0.00 0.00 0.00 0.00
26/9/2010 338 338 0 7 32 0 7 32 0 1007.99 1011.00 1006.00 388.50 388.50 388.50 0.0 0.0 0.0 17.2 22.6 10.5 0.00 0.00 0.00 0.00 0.00 0.00
27/9/2010 338 338 338 13 13 13 13 13 13 1011.00 1011.00 1011.00 388.50 388.50 388.50 0.0 0.0 0.0 15.6 15.6 15.6 0.00 0.00 0.00 0.00 0.00 0.00
26/9/2010 292 338 0 7 32 0 7 32 0 1008.11 1011.00 1006.00 388.50 388.50 388.50 0.0 0.0 0.0 17.1 22.6 10.5 0.00 0.00 0.00 0.00 0.00 0.00
27/9/2010 248 338 0 7 24 0 7 24 0 1012.29 1014.00 1008.00 388.50 388.50 388.50 0.0 0.0 0.0 15.8 22.0 6.2 0.00 0.00 0.00 0.00 0.00 0.00
28/9/2010 158 338 0 7 32 0 7 32 0 1015.25 1018.00 1012.00 388.50 388.50 388.50 0.0 0.0 0.0 16.5 21.5 9.1 0.00 0.00 0.00 0.00 0.00 0.00
28/9/2010 0 0 0 4 4 4 4 4 4 1018.00 1018.00 1018.00 388.50 388.50 388.50 0.0 0.0 0.0 17.5 17.5 17.5 0.00 0.00 0.00 0.00 0.00 0.00
28/9/2010 0 338 0 6 32 0 6 32 0 1015.35 1018.00 1012.00 388.50 388.50 388.50 0.0 0.0 0.0 16.6 21.5 9.1 0.00 0.00 0.00 0.00 0.00 0.00
29/9/2010 0 338 0 6 26 0 6 26 0 1016.56 1018.00 1015.00 388.50 388.50 388.50 0.0 0.0 0.0 17.8 22.5 9.0 0.00 0.00 0.00 0.00 0.00 0.00
30/9/2010 22 338 0 6 31 0 6 31 0 1016.31 1018.00 1015.00 388.50 388.50 388.50 0.0 0.0 0.0 19.3 23.0 15.1 0.00 0.00 0.00 0.00 0.00 0.00
1/10/2010 112 338 0 9 37 0 9 37 0 1013.48 1015.00 1012.00 388.50 388.50 388.50 0.0 0.0 0.0 19.2 22.5 15.1 0.00 0.00 0.00 0.00 0.00 0.00
2/10/2010 68 338 0 10 461 0 10 461 0 1013.20 1015.00 1011.00 388.50 388.50 388.50 0.0 0.0 0.0 19.9 23.1 11.6 0.00 0.00 0.00 0.00 0.00 0.00
2/10/2010 0 135 135 9 9 9 9 9 9 1012.00 1012.00 1012.00 388.50 388.50 388.50 0.0 0.0 0.0 20.1 20.1 20.1 0.00 0.00 0.00 0.00 0.00 0.00
2/10/2010 158 338 0 10 461 0 10 461 0 1013.14 1015.00 1011.00 388.50 388.50 388.50 0.0 0.0 0.0 19.9 23.1 11.6 0.00 0.00 0.00 0.00 0.00 0.00
3/10/2010 158 338 0 7 29 0 7 29 0 1007.97 1018.00 1002.00 388.50 388.50 388.50 0.0 0.0 0.0 21.0 23.7 17.8 0.00 0.00 0.00 0.00 0.00 0.00
4/10/2010 292 338 0 10 45 0 10 45 0 1002.02 1009.00 998.00 388.50 388.50 388.50 0.0 0.0 0.0 20.6 24.5 15.6 0.00 0.00 0.00 0.00 0.00 0.00
5/10/2010 22 338 0 6 28 0 6 28 0 1010.67 1013.00 1008.00 388.50 388.50 388.50 0.0 0.0 0.0 18.5 23.8 10.3 0.00 0.00 0.00 0.00 0.00 0.00
6/10/2010 22 338 0 6 28 0 6 28 0 1010.79 1013.00 1009.00 388.50 388.50 388.50 0.0 0.0 0.0 19.2 23.1 14.5 0.00 0.00 0.00 0.00 0.00 0.00
6/10/2010 0 22 22 6 6 6 6 6 6 1013.00 1013.00 1013.00 388.50 388.50 388.50 0.0 0.0 0.0 19.9 19.9 19.9 0.00 0.00 0.00 0.00 0.00 0.00
6/10/2010 22 338 0 6 28 0 6 28 0 1010.88 1013.00 1009.00 388.50 388.50 388.50 0.0 0.0 0.0 19.2 23.1 14.5 0.00 0.00 0.00 0.00 0.00 0.00
7/10/2010 22 338 0 12 44 0 12 44 0 1013.18 1015.00 1011.00 388.50 388.50 388.50 0.0 0.0 0.0 19.5 24.0 15.3 0.00 0.00 0.00 0.00 0.00 0.00
8/10/2010 112 338 0 10 31 0 10 31 0 1012.39 1014.00 1011.00 388.50 388.50 388.50 0.0 0.0 0.0 21.2 24.4 18.4 0.00 0.00 0.00 0.00 0.00 0.00
9/10/2010 112 338 0 9 32 0 9 32 0 1010.10 1014.00 1005.00 388.50 388.50 388.50 0.0 0.0 0.0 20.5 23.4 16.8 0.00 0.00 0.00 0.00 0.00 0.00
10/10/2010 22 338 0 12 34 0 12 34 0 1002.31 1006.00 998.00 401.12 406.66 388.50 0.0 0.0 0.0 16.4 21.4 11.4 0.00 0.00 0.00 0.00 0.00 0.00
10/10/2010 22 338 0 7 41 0 7 41 0 1016.93 1027.00 998.00 218.96 406.66 275.51 1.4 7.0 0.0 17.9 32.5 7.3 0.00 0.00 0.00 0.00 0.00 0.00
10/10/2010 22 315 315 7 3 3 7 3 3 1016.93 998.00 998.00 218.96 406.66 406.66 1.4 0.0 0.0 17.9 17.9 17.9 0.00 0.00 0.00 0.00 18.16 18.16
10/10/2010 248 338 0 7 41 0 7 41 0 1016.85 1027.00 997.00 219.73 407.19 405.87 1.4 7.0 0.0 17.9 32.5 7.3 0.00 0.00 0.00 0.00 18.16 18.16
10/10/2010 248 225 225 7 553 0 7 553 553 1016.85 997.00 997.00 219.73 407.19 407.19 1.4 0.0 0.0 17.9 9.3 9.3 0.00 0.00 0.00 0.00 18.16 18.16
10/10/2010 292 338 0 7 553 0 7 553 0 1016.29 1027.00 995.00 224.82 408.58 405.87 1.4 7.0 0.0 18.0 32.5 7.3 0.00 0.00 0.00 0.00 18.16 18.16
11/10/2010 22 338 0 8 30 0 8 30 0 998.51 1003.00 995.00 408.89 422.05 408.58 0.0 0.0 0.0 16.7 21.0 9.9 0.00 0.00 0.00 0.00 20.08 20.08
12/10/2010 22 338 0 11 25 0 11 25 0 1002.16 1003.00 1001.00 423.19 426.14 422.05 0.0 0.0 0.0 14.6 16.8 10.4 0.00 0.00 0.00 0.00 7.46 7.46
12/10/2010 22 338 0 7 47 0 7 47 0 1016.39 1027.00 999.00 226.89 439.55 422.02 1.4 7.0 0.0 17.8 32.5 7.3 0.00 0.00 0.00 0.00 7.46 7.46
13/10/2010 22 338 0 8 27 0 8 27 0 1005.80 1010.00 1001.00 440.77 440.94 440.94 0.0 0.0 0.0 17.2 21.1 10.6 0.00 0.00 0.00 0.00 0.00 0.00
14/10/2010 292 338 0 7 29 0 7 29 0 1010.34 1012.00 1009.00 440.94 440.94 440.94 0.0 0.0 0.0 16.9 20.8 9.6 0.00 0.36 0.36 0.00 1.39 1.39
15/10/2010 22 338 0 5 21 0 5 21 0 1009.97 1011.00 1008.00 440.94 440.94 440.94 0.0 0.0 0.0 15.0 20.5 7.0 0.00 0.36 0.36 0.00 0.00 0.00
16/10/2010 22 338 0 5 21 0 5 21 0 1009.86 1012.00 1008.00 440.94 440.94 440.94 0.0 0.0 0.0 14.4 19.9 5.3 0.00 0.36 0.36 0.00 0.00 0.00
16/10/2010 22 22 22 5 8 8 5 8 8 1009.86 1011.00 1011.00 440.94 440.94 440.94 0.0 0.0 0.0 14.4 14.4 14.4 0.00 0.36 0.36 0.00 0.00 0.00
16/10/2010 22 338 0 5 21 0 5 21 0 1009.92 1012.00 1008.00 440.94 440.94 440.94 0.0 0.0 0.0 14.4 19.9 5.3 0.00 0.36 0.36 0.00 0.00 0.00
17/10/2010 338 338 0 8 36 0 8 36 0 1011.88 1015.00 1011.00 440.94 440.94 440.94 0.0 0.0 0.0 13.8 20.2 5.0 0.00 0.36 0.36 0.00 0.00 0.00
18/10/2010 292 338 0 10 37 0 10 37 0 1014.75 1016.00 1013.00 440.94 440.94 440.94 0.0 0.0 0.0 12.3 19.0 0.2 0.00 0.00 0.00 0.00 0.00 0.00
18/10/2010 0 270 270 17 17 17 17 17 17 1016.00 1016.00 1016.00 440.94 440.94 440.94 0.0 0.0 0.0 9.2 9.2 9.2 0.00 0.00 0.00 0.00 0.00 0.00
18/10/2010 292 338 0 10 37 0 10 37 0 1014.80 1016.00 1013.00 440.94 440.94 440.94 0.0 0.0 0.0 12.2 19.0 0.2 0.00 0.00 0.00 0.00 0.00 0.00
19/10/2010 292 338 0 5 18 0 5 18 0 1015.28 1017.00 1013.00 440.94 440.94 440.94 0.0 0.0 0.0 13.5 20.2 3.3 0.00 0.00 0.00 0.00 0.00 0.00
20/10/2010 112 338 0 5 18 0 5 18 0 1016.03 1020.00 1014.00 440.94 440.94 440.94 0.0 0.0 0.0 13.9 20.0 5.9 0.00 0.00 0.00 0.00 0.00 0.00
21/10/2010 22 338 0 7 24 0 7 24 0 1021.11 1023.00 1019.00 440.94 440.94 440.94 0.0 0.0 0.0 14.1 19.3 5.6 0.00 0.00 0.00 0.00 0.00 0.00
22/10/2010 158 338 0 5 23 0 5 23 0 1020.96 1023.00 1019.00 440.94 440.94 440.94 0.0 0.0 0.0 15.8 19.8 11.4 0.00 0.00 0.00 0.00 0.00 0.00
22/10/2010 158 338 0 3 12 0 7 12 0 1015.00 1025.00 1007.00 275.51 440.94 247.88 0.0 1.0 0.0 17.9 17.9 9.5 0.00 0.00 0.00 0.00 0.00 0.00
22/10/2010 0 338 0 4 23 0 4 23 0 1020.86 1023.00 1019.00 440.94 440.94 440.94 0.0 0.0 0.0 15.9 19.8 11.4 0.00 0.00 0.00 0.00 0.00 0.00
23/10/2010 202 338 0 4 23 0 4 23 0 1017.10 1020.00 1015.00 440.94 440.94 440.94 0.0 0.0 0.0 16.9 20.0 12.6 0.00 0.00 0.00 0.00 0.00 0.00
24/10/2010 22 338 0 9 42 0 9 42 0 1012.15 1016.00 1007.00 440.94 440.94 440.94 0.0 0.0 0.0 15.7 21.1 9.3 0.00 0.00 0.00 0.00 0.00 0.00
25/10/2010 338 338 0 13 41 0 13 41 0 1012.29 1016.00 1007.00 440.94 440.94 440.94 0.0 0.0 0.0 12.5 17.4 5.5 0.00 0.00 0.00 0.00 0.00 0.00
26/10/2010 315 315 315 12 12 12 12 12 12 1016.57 1017.00 1016.00 440.94 440.94 440.94 0.0 0.0 0.0 8.3 9.3 7.4 0.00 0.00 0.00 0.00 0.00 0.00
26/10/2010 315 315 315 12 12 12 12 12 12 1016.57 1017.00 1017.00 440.94 440.94 440.94 0.0 0.0 0.0 8.3 7.4 7.4 0.00 0.00 0.00 0.00 0.00 0.00
26/10/2010 315 315 315 12 12 12 12 12 12 1016.56 1017.00 1016.00 440.94 440.94 440.94 0.0 0.0 0.0 7.6 9.3 6.5 0.00 0.00 0.00 0.00 0.00 0.00
26/10/2010 315 338 0 7 24 0 7 24 0 1019.42 1024.00 1016.00 440.94 440.94 440.94 0.0 0.0 0.0 12.5 19.2 5.1 0.00 0.00 0.00 0.00 0.00 0.00
27/10/2010 0 338 0 7 21 0 7 21 0 1023.36 1025.00 1022.00 440.94 440.94 440.94 0.0 0.0 0.0 13.0 19.2 1.6 0.00 0.00 0.00 0.00 0.00 0.00
28/10/2010 22 338 0 6 20 0 6 20 0 1021.69 1024.00 1020.00 440.94 440.94 440.94 0.0 0.0 0.0 14.6 19.7 7.5 0.00 0.00 0.00 0.00 0.00 0.00
29/10/2010 158 338 0 6 27 0 6 27 0 1016.04 1020.00 1011.00 440.94 440.94 440.94 0.0 0.0 0.0 14.7 19.5 6.1 0.00 0.00 0.00 0.00 0.00 0.00
30/10/2010 248 338 0 4 24 0 4 24 0 1007.85 1012.00 1003.00 440.94 440.94 440.94 0.0 0.0 0.0 16.1 19.4 11.9 0.00 0.00 0.00 0.00 0.00 0.00
31/10/2010 248 338 0 8 35 0 8 35 0 998.03 1004.00 993.00 441.47 441.73 440.94 0.0 0.0 0.0 15.7 20.2 10.0 0.00 0.00 0.00 0.00 0.00 0.00
1/11/2010 112 338 0 6 25 0 6 25 0 1005.48 1011.00 1000.00 441.73 441.73 441.73 0.0 0.0 0.0 15.2 18.7 9.2 0.00 0.00 0.00 0.00 0.86 0.86
2/11/2010 292 338 0 8 29 0 8 29 0 1013.69 1018.00 1010.00 441.73 441.73 441.73 0.0 0.0 0.0 16.6 23.1 8.8 0.00 0.00 0.00 0.00 0.86 0.86
2/11/2010 0 292 292 4 4 4 4 4 4 1018.00 1018.00 1018.00 441.73 441.73 441.73 0.0 0.0 0.0 15.6 15.6 15.6 0.00 0.00 0.00 0.00 0.86 0.86
2/11/2010 315 338 0 8 29 0 8 29 0 1013.69 1018.00 1010.00 441.73 441.73 441.73 0.0 0.0 0.0 16.6 23.1 8.8 0.00 0.00 0.00 0.00 0.86 0.86
3/11/2010 22 338 0 4 31 0 4 31 0 1023.97 1025.00 1017.00 441.73 441.73 441.73 0.0 0.0 0.0 16.8 22.4 10.1 0.00 0.00 0.00 0.00 0.86 0.86
4/11/2010 22 338 0 6 24 0 6 24 0 1026.70 1028.00 1025.00 441.73 441.73 441.73 0.0 0.0 0.0 17.1 22.0 10.3 0.00 0.00 0.00 0.00 0.86 0.86
4/11/2010 0 0 0 5 5 5 5 5 5 1028.00 1028.00 1028.00 441.73 441.73 441.73 0.0 0.0 0.0 16.7 16.7 16.7 0.00 0.00 0.00 0.00 0.86 0.86
4/11/2010 112 338 0 6 24 0 6 24 0 1026.70 1028.00 1025.00 441.73 441.73 441.73 0.0 0.0 0.0 17.1 22.0 10.3 0.00 0.00 0.00 0.00 0.86 0.86
5/11/2010 22 338 0 5 29 0 5 29 0 1028.00 1029.00 1026.00 441.73 441.73 441.73 0.0 0.0 0.0 16.7 20.5 13.3 0.00 0.00 0.00 0.00 0.86 0.86
5/11/2010 0 68 68 6 6 6 6 6 6 1026.00 1026.00 1026.00 441.73 441.73 441.73 0.0 0.0 0.0 15.6 15.6 15.6 0.00 0.00 0.00 0.00 0.86 0.86
5/11/2010 68 338 0 5 29 0 5 29 0 1028.00 1029.00 1026.00 441.73 441.73 441.73 0.0 0.0 0.0 16.7 20.5 12.1 0.00 0.00 0.00 0.00 0.86 0.86
6/11/2010 22 338 0 1 25 0 1 25 0 1014.55 1026.00 1013.00 441.73 441.73 441.73 0.0 0.0 0.0 13.9 19.3 10.5 0.00 0.00 0.00 0.00 0.86 0.86
7/11/2010 292 338 0 7 32 0 7 32 0 1006.09 1014.00 1001.00 441.72 441.73 440.94 0.0 0.0 0.0 14.2 20.0 6.2 0.00 0.00 0.00 0.00 0.00 0.00
8/11/2010 248 338 0 9 33 0 9 33 0 994.10 1002.00 985.00 441.73 441.73 441.73 0.0 0.0 0.0 9.8 14.4 0.1 0.00 0.00 0.00 0.00 0.00 0.00
8/11/2010 248 248 248 9 4 4 9 4 4 994.10 987.00 987.00 441.73 441.73 441.73 0.0 0.0 0.0 9.8 11.6 11.6 0.00 0.00 0.00 0.00 0.00 0.00
8/11/2010 202 338 0 9 33 0 9 33 0 993.78 1002.00 985.00 441.73 441.73 441.73 0.0 0.0 0.0 9.9 14.4 0.1 0.00 0.00 0.00 0.00 0.00 0.00
9/11/2010 292 338 0 12 46 0 12 46 0 985.49 990.00 983.00 441.73 441.73 441.73 0.0 0.0 0.0 12.8 18.7 5.5 0.00 0.00 0.00 0.00 0.00 0.00
10/11/2010 292 338 0 14 50 0 14 50 0 999.17 1011.00 990.00 441.73 441.73 441.73 0.0 0.0 0.0 11.7 17.5 2.7 0.00 0.00 0.00 0.00 0.00 0.00
11/11/2010 270 338 0 9 37 0 9 37 0 1016.58 1019.00 1011.00 441.73 441.73 441.73 0.0 0.0 0.0 12.5 17.8 3.7 0.00 0.00 0.00 0.00 0.00 0.00
12/11/2010 248 338 0 6 33 0 6 33 0 1017.13 1019.00 1015.00 441.73 441.73 441.73 0.0 0.0 0.0 16.1 21.7 8.9 0.00 0.00 0.00 0.00 0.00 0.00
13/11/2010 22 338 0 4 13 0 4 13 0 1011.60 1016.00 1008.00 441.73 441.73 441.73 0.0 0.0 0.0 15.9 20.5 11.7 0.00 0.00 0.00 0.00 0.00 0.00
14/11/2010 158 338 0 2 21 0 2 21 0 1006.80 1008.00 1006.00 441.73 441.73 441.73 0.0 0.0 0.0 14.7 18.1 12.1 0.00 0.00 0.00 0.00 0.00 0.00
15/11/2010 315 338 0 11 57 0 11 57 0 1010.57 1015.00 986.00 442.28 443.71 441.73 0.0 0.0 0.0 12.0 16.3 2.1 0.00 0.00 0.00 0.00 0.00 0.00
16/11/2010 315 338 0 14 45 0 14 45 0 1015.40 1018.00 1013.00 444.76 444.83 443.71 0.0 0.0 0.0 10.6 17.2 3.2 0.00 0.15 0.15 0.00 0.53 0.53
17/11/2010 292 338 0 6 31 0 6 31 0 1008.72 1014.00 1005.00 444.83 444.83 444.83 0.0 0.0 0.0 11.1 14.5 4.7 0.00 0.15 0.15 0.00 2.51 2.51
18/11/2010 248 338 22 3 21 0 3 21 0 1010.89 1012.00 1009.00 444.84 444.83 444.83 0.0 0.0 0.0 10.6 16.3 6.7 0.00 0.15 0.15 0.00 0.00 0.00
18/11/2010 248 338 0 7 28 0 7 28 0 1022.97 1025.00 1012.00 66.56 444.83 66.56 0.2 1.0 0.0 6.5 16.1 -0.5 0.00 0.15 0.15 0.00 0.00 0.00
18/11/2010 22 338 0 5 21 0 5 21 0 1012.20 1016.00 1009.00 444.83 444.83 444.83 0.0 0.0 0.0 11.8 16.5 6.7 0.00 0.15 0.15 0.00 0.00 0.00
19/11/2010 45 338 0 6 15 0 6 15 0 1016.10 1018.00 1015.00 444.83 444.83 444.83 0.0 0.0 0.0 9.5 12.3 3.5 0.00 0.15 0.15 0.00 0.00 0.00
20/11/2010 22 338 0 7 21 0 7 21 0 1009.43 1015.00 1005.00 445.74 446.48 444.83 0.0 0.0 0.0 9.9 14.8 5.8 0.00 0.15 0.15 0.00 0.00 0.00
21/11/2010 0 0 0 9 9 9 9 9 9 1001.76 1005.00 999.00 446.48 446.48 446.48 0.0 0.0 0.0 10.6 13.6 5.9 0.00 0.15 0.15 0.00 1.65 1.65
22/11/2010 0 338 0 11 38 0 11 38 0 1003.01 1007.00 1000.00 446.48 446.48 442.32 0.0 0.0 0.0 9.3 14.6 2.1 0.00 0.00 0.00 0.00 0.00 0.00
23/11/2010 292 338 0 8 30 0 8 30 0 1007.67 1009.00 1007.00 446.48 446.48 446.48 0.0 0.0 0.0 10.4 15.6 2.0 0.00 1.08 1.08 0.00 0.00 0.00
24/11/2010 0 338 0 4 20 0 4 20 0 1011.03 1013.00 1004.00 289.59 0.00 0.00 0.0 0.0 0.0 9.5 14.2 1.6 0.00 0.00 0.00 0.00 0.00 0.00
25/11/2010 248 338 0 8 36 0 8 36 0 1009.24 1013.00 1006.00 0.00 0.00 0.00 0.0 0.0 0.0 8.2 13.8 1.6 0.00 0.00 0.00 0.00 0.00 0.00
26/11/2010 338 338 0 7 35 0 7 35 0 1007.79 1010.00 1007.00 0.00 0.00 0.00 0.0 0.0 0.0 7.9 13.5 -3.1 0.00 0.00 0.00 0.00 0.00 0.00
27/11/2010 22 338 0 9 27 0 9 27 0 1002.55 1008.00 999.00 0.00 0.00 0.00 0.0 0.0 0.0 5.0 13.5 -5.6 0.00 0.00 0.00 0.00 0.00 0.00
28/11/2010 22 338 0 13 33 0 13 33 0 1000.10 1006.00 997.00 0.00 0.00 0.00 0.0 0.0 0.0 5.3 12.9 -3.0 0.00 0.00 0.00 0.00 0.00 0.00
28/11/2010 22 338 0 8 23 0 8 23 0 1006.13 1007.00 996.00 0.00 0.00 0.00 0.0 0.0 0.0 5.5 7.5 -1.7 0.00 0.00 0.00 0.00 0.00 0.00
29/11/2010 22 338 0 9 22 0 9 22 0 1005.39 1008.00 1002.00 0.00 0.00 0.00 0.0 0.0 0.0 4.9 8.9 -2.8 0.00 0.00 0.00 0.00 0.00 0.00
30/11/2010 22 338 0 6 20 0 6 20 0 997.93 1002.00 995.00 0.00 0.00 0.00 0.0 0.0 0.0 8.1 11.1 0.3 0.00 0.00 0.00 0.00 0.00 0.00
1/12/2010 292 338 0 9 39 0 9 39 0 998.72 1004.00 995.00 0.00 0.00 0.00 0.0 0.0 0.0 8.2 13.1 -2.7 0.00 0.00 0.00 0.00 3.30 3.30
1/12/2010 292 338 338 9 6 6 9 6 6 998.72 281.00 281.00 0.00 0.00 0.00 0.0 0.0 0.0 8.2 9.0 9.0 0.00 0.00 0.00 0.00 0.26 0.26
1/12/2010 338 338 0 9 39 0 9 39 0 999.27 1006.00 281.00 0.00 0.00 0.00 0.0 0.0 0.0 8.1 13.1 -2.7 0.00 0.00 0.00 0.00 0.26 0.26
2/12/2010 292 338 0 8 38 0 8 38 0 1007.09 1009.00 1006.00 0.00 0.00 0.00 0.0 0.0 0.0 6.8 11.2 -0.7 0.00 0.00 0.00 0.00 0.26 0.26
3/12/2010 315 338 0 10 46 0 10 46 0 1011.84 1018.00 1008.00 0.00 0.00 0.00 0.0 0.0 0.0 5.2 10.7 -3.1 0.00 0.00 0.00 0.00 0.00 0.00
4/12/2010 292 338 0 7 31 0 7 31 0 1019.31 1021.00 998.00 0.00 0.00 0.00 0.0 0.0 0.0 6.8 17.9 -4.6 0.00 0.00 0.00 0.00 0.00 0.00
5/12/2010 22 338 0 3 12 0 3 12 0 1013.97 1020.00 1008.00 0.00 0.00 0.00 0.0 0.0 0.0 10.0 12.7 5.2 0.00 0.00 0.00 0.00 0.00 0.00
5/12/2010 0 338 0 5 10 0 5 10 0 1007.74 1008.00 1007.00 0.00 0.00 0.00 0.0 0.0 0.0 10.2 10.4 8.1 0.00 0.00 0.00 0.00 0.53 0.53
6/12/2010 0 338 0 3 13 0 3 13 0 1001.37 1007.00 995.00 126.93 452.02 452.02 0.0 0.0 0.0 12.2 18.6 5.2 0.00 0.00 0.00 0.00 0.00 0.00
6/12/2010 0 338 0 5 24 0 5 24 0 997.54 1022.00 996.00 452.02 452.02 452.02 0.0 0.0 0.0 14.8 16.3 9.3 0.00 0.00 0.00 0.00 0.00 0.00
7/12/2010 248 338 0 3 20 0 3 20 0 997.72 999.00 996.00 452.02 452.02 452.02 0.0 0.0 0.0 15.6 18.1 10.4 0.00 0.00 0.00 0.00 0.00 0.00
8/12/2010 22 338 0 4 18 0 4 18 0 1002.66 1008.00 998.00 460.67 461.42 452.02 0.0 0.0 0.0 15.9 20.1 9.7 0.00 0.00 0.00 0.00 0.00 0.00
9/12/2010 112 338 0 8 24 0 8 24 0 1013.52 1019.00 1007.00 466.41 467.77 461.42 0.0 0.0 0.0 13.9 17.2 8.6 0.00 9.40 9.40 0.00 9.40 9.40
10/12/2010 22 338 0 7 24 0 7 24 0 1021.72 1025.00 1018.00 467.77 467.77 467.77 0.0 0.0 0.0 9.7 15.8 -0.4 0.00 9.40 9.40 0.00 6.35 6.35
10/12/2010 248 292 135 6 12 0 6 12 0 1022.00 1022.00 1022.00 467.77 467.77 467.77 0.0 0.0 0.0 14.9 15.3 12.8 0.00 9.40 9.40 0.00 0.00 0.00
10/12/2010 248 248 158 5 6 4 5 6 4 1022.00 1022.00 1022.00 467.77 467.77 467.77 0.0 0.0 0.0 14.8 14.8 14.8 0.00 9.40 9.40 0.00 0.00 0.00
10/12/2010 248 225 202 3 6 0 3 6 0 1022.00 1022.00 1022.00 467.77 467.77 467.77 0.0 0.0 0.0 14.8 14.8 14.8 0.00 9.40 9.40 0.00 0.00 0.00
10/12/2010 248 225 158 4 6 4 4 6 4 1022.00 1022.00 1022.00 467.77 467.77 467.77 0.0 0.0 0.0 14.8 14.8 14.8 0.00 9.40 9.40 0.00 0.00 0.00
10/12/2010 225 225 180 5 8 5 5 8 5 1022.00 1022.00 1022.00 467.77 467.77 467.77 0.0 0.0 0.0 14.8 14.8 14.8 0.00 9.40 9.40 0.00 0.00 0.00
10/12/2010 0 338 0 6 17 0 6 17 0 1022.55 1023.00 1011.00 467.77 467.77 467.77 0.0 0.0 0.0 10.3 14.8 3.3 0.00 9.40 9.40 0.00 0.00 0.00
11/12/2010 22 338 0 9 26 0 9 26 0 1018.45 1023.00 1012.00 467.77 467.77 467.77 0.0 0.0 0.0 8.7 15.6 0.0 0.00 9.40 9.40 0.00 0.00 0.00
12/12/2010 22 338 0 9 28 0 9 28 0 1006.91 1013.00 1002.00 467.77 467.77 467.77 0.0 0.0 0.0 8.4 16.8 -0.7 0.00 0.00 0.00 0.00 0.00 0.00
13/12/2010 202 338 0 4 24 0 4 24 0 1007.71 1010.00 1005.00 467.77 467.77 467.77 0.0 0.0 0.0 11.0 13.0 5.8 0.00 0.00 0.00 0.00 0.00 0.00
14/12/2010 292 338 0 4 20 0 4 20 0 1013.22 1015.00 1010.00 469.70 469.80 467.77 0.0 0.0 0.0 9.0 11.7 -0.1 0.00 0.00 0.00 0.00 0.00 0.00
15/12/2010 292 338 0 8 922 0 8 922 0 1014.80 1017.00 1014.00 469.81 469.80 469.80 0.0 0.0 0.0 4.2 9.4 -14.3 0.00 0.00 0.00 0.00 0.00 0.00
16/12/2010 292 338 0 9 40 0 9 40 0 1012.62 1016.00 1008.00 469.81 469.80 469.80 0.0 0.0 0.0 2.7 9.2 -6.5 0.00 0.00 0.00 0.00 0.00 0.00
17/12/2010 225 338 0 14 44 0 14 44 0 999.58 1009.00 994.00 469.81 469.80 469.80 0.0 0.0 0.0 4.7 12.3 -6.5 0.00 0.00 0.00 0.00 0.00 0.00
17/12/2010 292 338 0 7 41 0 7 41 0 1017.17 1027.00 994.00 216.54 469.80 275.51 1.4 7.0 0.0 17.9 32.5 -0.5 0.00 0.00 0.00 0.00 0.00 0.00
18/12/2010 315 338 0 8 17 0 8 17 0 996.54 998.00 995.00 469.80 469.80 469.80 0.0 0.0 0.0 4.8 7.4 -0.9 0.00 0.00 0.00 0.00 0.00 0.00
18/12/2010 22 338 0 7 36 0 7 36 0 1016.32 999.00 998.00 228.48 469.80 469.80 1.4 0.0 0.0 17.3 11.0 -1.5 0.00 0.00 0.00 0.00 0.00 0.00
19/12/2010 22 338 0 6 21 0 6 21 0 996.68 1002.00 994.00 469.81 469.80 469.80 0.0 0.0 0.0 8.9 14.5 1.2 0.00 -59.77 -59.77 0.00 0.00 0.00
20/12/2010 22 338 0 4 19 0 4 19 0 1003.88 1006.00 1002.00 469.81 469.80 469.80 0.0 0.0 0.0 10.5 15.5 2.5 0.00 0.00 0.00 0.00 0.00 0.00
21/12/2010 22 338 0 4 13 0 4 13 0 997.96 1005.00 994.00 458.88 451.07 444.89 0.0 0.0 0.0 9.7 11.5 2.6 0.00 0.00 0.00 0.00 0.00 0.00
22/12/2010 112 338 0 10 24 0 10 24 0 991.83 995.00 988.00 451.14 451.32 451.07 0.0 0.0 0.0 10.3 14.0 6.8 0.00 0.00 0.00 0.00 7.37 7.37
23/12/2010 270 338 0 10 31 0 10 31 0 987.65 991.00 986.00 451.31 451.32 451.32 0.0 0.0 0.0 9.3 14.4 1.4 0.00 0.00 0.00 0.00 0.00 0.00
24/12/2010 270 338 0 16 51 2 16 51 2 996.38 1002.00 991.00 451.31 451.32 451.32 0.0 0.0 0.0 4.3 11.5 -5.2 0.00 0.00 0.00 0.00 0.00 0.00
25/12/2010 202 202 202 10 10 10 10 10 10 1005.32 1009.00 1002.00 451.31 451.32 451.32 0.0 0.0 0.0 3.1 6.7 -0.2 0.00 0.00 0.00 0.00 0.00 0.00
26/12/2010 22 338 0 4 21 0 4 21 0 1011.20 1015.00 1008.00 451.31 451.32 451.32 0.0 5.0 0.0 5.1 11.2 -2.3 0.00 0.00 0.00 0.00 0.00 0.00
27/12/2010 22 338 0 7 25 0 7 25 0 1014.56 1016.00 1013.00 451.31 451.32 451.32 0.0 0.0 0.0 5.9 11.8 -4.3 0.00 0.00 0.00 0.00 0.00 0.00
28/12/2010 22 338 0 6 21 0 6 21 0 1013.86 1015.00 1013.00 451.31 451.32 451.32 0.0 0.0 0.0 7.7 12.8 -1.1 0.00 0.00 0.00 0.00 0.00 0.00
29/12/2010 22 338 0 5 21 0 5 21 0 1013.26 1015.00 1012.00 451.31 451.32 451.32 0.0 0.0 0.0 10.0 13.5 -1.0 0.00 0.00 0.00 0.00 0.00 0.00
30/12/2010 68 338 0 9 21 0 9 21 0 1011.76 1014.00 1010.00 451.31 451.32 451.32 0.0 0.0 0.0 10.5 12.9 5.6 0.00 0.00 0.00 0.00 0.00 0.00
31/12/2010 22 338 0 8 22 0 8 22 0 1012.53 1014.00 1011.00 451.31 451.32 451.32 0.0 0.0 0.0 10.2 13.8 5.6 0.00 0.00 0.00 0.00 0.00 0.00
1/1/2011 225 338 0 2 12 0 2 12 0 1012.70 1014.00 1011.00 243.80 16.32 16.32 0.0 0.0 0.0 11.6 13.1 9.8 0.00 0.00 0.00 0.00 0.00 0.00
2/1/2011 292 338 0 4 24 0 4 24 0 1010.22 1012.00 1008.00 0.15 0.00 0.00 0.0 0.0 0.0 11.1 15.1 6.1 0.00 0.00 0.00 0.00 0.00 0.00
3/1/2011 315 338 0 5 20 0 5 20 0 1013.28 1015.00 1011.00 0.00 0.00 0.00 0.0 0.0 0.0 6.7 12.0 -0.9 0.00 0.00 0.00 0.00 0.00 0.00
4/1/2011 0 338 0 6 19 0 6 19 0 1011.85 1015.00 1010.00 0.00 0.00 0.00 0.0 0.0 0.0 6.7 10.6 -1.6 0.00 0.00 0.00 0.00 0.00 0.00
5/1/2011 68 338 0 2 13 0 2 13 0 1008.78 1011.00 1007.00 0.16 0.25 0.00 0.0 0.0 0.0 10.2 12.3 7.6 0.00 0.00 0.00 0.00 0.00 0.00
6/1/2011 22 338 0 3 10 0 3 10 0 1007.50 1009.00 1006.00 0.25 0.25 0.25 0.0 0.0 0.0 11.2 13.5 8.3 0.00 0.00 0.00 0.00 0.25 0.25
7/1/2011 112 338 0 2 14 0 2 14 0 1009.06 1011.00 1008.00 0.25 0.25 0.25 0.0 0.0 0.0 12.3 15.3 9.3 0.00 0.00 0.00 0.00 0.00 0.00
8/1/2011 202 338 0 4 18 0 4 18 0 1011.18 1013.00 1010.00 0.25 0.25 0.25 0.0 0.0 0.0 13.5 17.3 9.2 0.00 0.00 0.00 0.00 0.00 0.00
9/1/2011 22 338 0 5 26 0 5 26 0 1010.21 1014.00 1008.00 0.25 0.25 0.25 0.0 0.0 0.0 12.5 17.5 5.6 0.00 0.00 0.00 0.00 0.00 0.00
10/1/2011 22 338 0 6 32 0 6 32 0 1013.72 1015.00 1012.00 0.25 0.25 0.25 0.0 0.0 0.0 10.7 15.4 5.4 0.00 0.00 0.00 0.00 0.00 0.00
11/1/2011 338 338 0 2 14 0 2 14 0 1011.62 1013.00 1010.00 0.25 0.25 0.25 0.0 0.0 0.0 9.9 11.0 4.4 0.00 0.00 0.00 0.00 0.00 0.00
11/1/2011 338 338 0 7 44 0 7 44 0 1017.01 1013.00 1010.00 206.31 0.25 0.25 1.4 0.0 0.0 17.7 17.9 5.8 0.00 0.00 0.00 0.00 0.00 0.00
12/1/2011 112 338 0 7 36 0 7 36 0 1016.95 1020.00 1012.00 0.25 0.25 0.25 0.0 0.0 0.0 12.2 17.7 1.7 0.00 0.00 0.00 0.00 0.00 0.00
13/1/2011 112 338 0 4 21 0 4 21 0 1017.81 1020.00 1016.00 0.25 0.25 0.25 0.0 0.0 0.0 12.7 18.5 8.2 0.00 0.00 0.00 0.00 0.00 0.00
14/1/2011 22 338 0 5 20 0 5 20 0 1015.91 1018.00 1015.00 0.25 0.25 0.25 0.0 0.0 0.0 12.8 17.2 6.6 0.00 0.00 0.00 0.00 0.00 0.00
14/1/2011 22 22 22 5 17 17 5 17 17 1015.91 1018.00 1018.00 0.25 0.25 0.25 0.0 0.0 0.0 12.8 9.3 9.3 0.00 0.00 0.00 0.00 0.00 0.00
14/1/2011 112 338 0 5 20 0 5 20 0 1016.03 1019.00 1015.00 0.25 0.25 0.25 0.0 0.0 0.0 12.7 17.2 6.6 0.00 0.00 0.00 0.00 0.00 0.00
15/1/2011 22 338 0 6 21 0 6 21 0 1021.04 1024.00 1018.00 0.25 0.25 0.25 0.0 0.0 0.0 12.7 16.4 6.7 0.00 0.00 0.00 0.00 0.00 0.00
15/1/2011 22 338 0 0 5 0 0 5 0 1021.00 1022.00 1021.00 0.25 0.25 0.25 0.0 0.0 0.0 12.0 14.8 11.9 0.00 0.00 0.00 0.00 0.00 0.00
15/1/2011 22 338 0 2 9 0 2 9 0 1021.00 1021.00 1008.00 0.25 0.25 0.25 0.0 0.0 0.0 11.3 11.9 5.3 0.00 0.00 0.00 0.00 0.00 0.00
16/1/2011 0 338 0 3 14 0 3 14 0 1021.58 1023.00 1020.00 0.25 0.25 0.25 0.0 0.0 0.0 9.8 10.8 5.7 0.00 0.00 0.00 0.00 0.00 0.00
17/1/2011 22 338 0 5 20 0 5 20 0 1021.99 1023.00 1020.00 0.25 0.25 0.25 0.0 0.0 0.0 9.8 13.4 4.2 0.00 0.00 0.00 0.00 0.00 0.00
18/1/2011 22 338 0 5 17 0 5 17 0 1020.33 1023.00 1018.00 0.25 0.25 0.25 0.0 0.0 0.0 10.0 14.0 1.1 0.00 0.00 0.00 0.00 0.00 0.00
19/1/2011 22 338 0 8 18 0 8 18 0 1018.23 1019.00 1017.00 0.25 0.25 0.25 0.0 0.0 0.0 9.5 13.9 4.5 0.00 0.00 0.00 0.00 0.00 0.00
19/1/2011 135 158 90 10 16 6 10 16 6 1018.00 1018.00 1018.00 0.25 0.25 0.25 0.0 0.0 0.0 12.2 14.0 9.3 0.00 0.00 0.00 0.00 0.00 0.00
19/1/2011 112 338 0 7 28 0 7 28 0 1016.31 1018.00 1015.00 0.25 0.25 0.25 0.0 0.0 0.0 11.3 14.6 6.5 0.00 0.00 0.00 0.00 0.00 0.00
20/1/2011 22 338 0 9 28 0 9 28 0 1014.49 1016.00 1012.00 0.25 0.25 0.25 0.0 0.0 0.0 8.6 13.2 -0.2 0.00 0.00 0.00 0.00 0.00 0.00
21/1/2011 22 338 0 12 44 0 12 44 0 1014.49 1016.00 1012.00 0.25 0.25 0.25 0.0 0.0 0.0 4.0 10.5 -3.9 0.00 0.00 0.00 0.00 0.00 0.00
22/1/2011 338 338 0 5 21 0 5 21 0 1014.24 1016.00 1012.00 0.25 0.25 0.25 0.0 0.0 0.0 3.1 8.4 -7.5 0.00 0.00 0.00 0.00 0.00 0.00
22/1/2011 338 0 0 5 0 0 5 0 0 1014.24 1014.00 1014.00 0.25 0.25 0.25 0.0 0.0 0.0 3.1 3.1 3.1 0.00 0.00 0.00 0.00 0.00 0.00
22/1/2011 338 338 0 5 21 0 5 21 0 1014.25 1016.00 1012.00 0.25 0.25 0.25 0.0 0.0 0.0 3.0 8.4 -7.5 0.00 0.00 0.00 0.00 0.00 0.00
23/1/2011 22 338 0 7 21 0 7 21 0 1014.50 1016.00 1013.00 0.25 0.25 0.25 0.0 0.0 0.0 1.8 9.4 -7.9 0.00 0.00 0.00 0.00 0.00 0.00
24/1/2011 0 338 0 11 18 0 11 18 0 1015.45 1018.00 1014.00 0.25 0.25 0.25 0.0 0.0 0.0 0.5 10.3 -7.1 0.00 0.00 0.00 0.00 0.00 0.00
25/1/2011 0 338 0 8 17 0 8 17 0 1012.79 1015.00 1010.00 0.25 0.25 0.25 0.0 0.0 0.0 3.4 11.1 -5.9 0.00 0.00 0.00 0.00 0.00 0.00
26/1/2011 22 338 0 5 24 0 5 24 0 1004.38 1011.00 999.00 0.25 0.25 0.25 0.0 0.0 0.0 5.1 9.6 -4.2 0.00 0.00 0.00 0.00 0.00 0.00
27/1/2011 22 338 0 11 40 0 11 40 0 998.78 1001.00 997.00 0.43 1.33 0.25 0.0 0.0 0.0 5.2 9.7 -5.3 0.00 0.00 0.00 0.00 0.00 0.00
28/1/2011 22 338 0 13 33 0 13 33 0 1002.26 1005.00 1001.00 2.52 41.53 1.33 0.0 0.0 0.0 5.7 10.8 -2.9 0.00 0.00 0.00 0.00 1.08 1.08
28/1/2011 22 22 22 13 13 13 13 13 13 1002.26 1003.00 1003.00 2.52 41.53 41.53 0.0 0.0 0.0 5.7 3.5 3.5 0.00 0.00 0.00 0.00 35.37 35.37
28/1/2011 22 338 0 13 33 0 13 33 0 1002.36 1005.00 1001.00 8.58 41.78 1.33 0.0 0.0 0.0 5.4 10.8 -2.9 0.00 0.00 0.00 0.00 35.37 35.37
29/1/2011 22 338 0 9 30 0 9 30 0 1001.43 1004.00 1000.00 41.78 41.78 41.78 0.0 0.0 0.0 7.1 13.5 -2.2 0.00 0.00 0.00 0.00 40.45 40.45
30/1/2011 22 338 0 6 26 0 6 26 0 1005.04 1009.00 1002.00 41.78 41.78 41.78 0.0 0.0 0.0 7.1 10.9 0.4 0.00 0.00 0.00 0.00 0.00 0.00
31/1/2011 22 338 0 7 27 0 7 27 0 1010.46 1014.00 1008.00 42.75 42.80 41.78 0.0 0.0 0.0 6.4 12.0 -3.5 0.00 0.00 0.00 0.00 0.00 0.00
1/2/2011 22 338 0 11 34 0 11 34 0 1014.60 1017.00 1013.00 42.80 42.80 42.80 0.0 0.0 0.0 6.5 14.2 -5.7 0.00 0.00 0.00 0.00 1.08 1.08
1/2/2011 292 338 0 5 22 0 5 22 0 1014.83 1015.00 1014.00 42.80 42.80 42.80 0.0 0.0 0.0 7.3 9.7 1.9 0.00 0.00 0.00 0.00 0.00 0.00
2/2/2011 0 338 0 4 14 0 4 14 0 1016.55 1017.00 1015.00 42.80 42.80 42.80 0.0 0.0 0.0 6.2 7.0 1.6 0.00 0.00 0.00 0.00 0.00 0.00
2/2/2011 0 22 22 4 8 8 4 8 8 1016.55 1017.00 1017.00 42.80 42.80 42.80 0.0 0.0 0.0 6.2 6.0 6.0 0.00 0.00 0.00 0.00 0.00 0.00
2/2/2011 292 338 0 5 28 0 5 28 0 1015.85 1018.00 1014.00 42.80 42.80 42.80 0.0 0.0 0.0 9.4 16.2 -2.0 0.00 0.00 0.00 0.00 0.00 0.00
2/2/2011 292 338 0 7 41 0 7 41 0 1017.16 1027.00 514.00 202.98 42.80 42.80 1.3 7.0 0.0 17.3 32.5 -2.0 0.00 0.00 0.00 0.00 0.00 0.00
3/2/2011 112 338 0 3 18 0 3 18 0 1020.31 1023.00 1004.00 42.80 42.80 41.78 0.0 0.0 0.0 10.5 16.6 0.1 0.00 0.00 0.00 0.00 0.00 0.00
4/2/2011 202 338 0 4 17 0 4 17 0 1025.04 1027.00 1022.00 42.80 42.80 42.80 0.0 0.0 0.0 11.0 16.3 2.7 0.00 0.00 0.00 0.00 0.00 0.00
5/2/2011 315 338 0 4 17 0 4 17 0 1025.18 1027.00 1023.00 42.80 42.80 42.80 0.0 0.0 0.0 11.8 16.3 3.8 0.00 0.00 0.00 0.00 0.00 0.00
Today's Data File
6/2/11
Time Wind Dir Wind Spd Wind Gust Raw Barom Tot Rain UV Wind Chill DailyRain 24HrRain
° km/hr km/hr hPa mm °C mm mm
0:00 315 5 5 1024.00 42.80 0.0 11.6 0.00 0.00
0:05 315 5 5 1024.00 42.80 0.0 11.7 0.00 0.00
0:10 315 5 5 1024.00 42.80 0.0 11.7 0.00 0.00
0:15 315 5 5 1023.00 42.80 0.0 11.8 0.00 0.00
0:20 315 5 5 1023.00 42.80 0.0 12.0 0.00 0.00
0:25 315 5 5 1023.00 42.80 0.0 12.1 0.00 0.00
0:30 315 5 5 1023.00 42.80 0.0 12.1 0.00 0.00
0:35 315 5 5 1023.00 42.80 0.0 12.3 0.00 0.00
0:40 315 5 5 1023.00 42.80 0.0 12.3 0.00 0.00
0:45 315 5 5 1024.00 42.80 0.0 12.5 0.00 0.00
0:50 315 5 5 1024.00 42.80 0.0 12.4 0.00 0.00
0:55 315 5 5 1024.00 42.80 0.0 12.2 0.00 0.00
1:00 315 5 5 1023.00 42.80 0.0 12.1 0.00 0.00
1:05 315 5 5 1023.00 42.80 0.0 12.0 0.00 0.00
1:10 315 5 5 1023.00 42.80 0.0 11.9 0.00 0.00
1:15 315 5 5 1023.00 42.80 0.0 11.7 0.00 0.00
1:20 315 5 5 1023.00 42.80 0.0 11.8 0.00 0.00
1:25 315 5 5 1023.00 42.80 0.0 11.7 0.00 0.00
1:30 315 5 5 1023.00 42.80 0.0 11.6 0.00 0.00
1:35 315 5 5 1023.00 42.80 0.0 11.7 0.00 0.00
1:40 315 5 5 1023.00 42.80 0.0 11.8 0.00 0.00
1:45 315 5 5 1023.00 42.80 0.0 11.9 0.00 0.00
1:50 315 5 5 1023.00 42.80 0.0 12.0 0.00 0.00
1:55 315 5 5 1023.00 42.80 0.0 11.9 0.00 0.00
2:00 315 5 5 1022.00 42.80 0.0 11.9 0.00 0.00
2:05 315 5 5 1022.00 42.80 0.0 11.8 0.00 0.00
2:10 315 5 5 1022.00 42.80 0.0 11.8 0.00 0.00
2:15 315 5 5 1022.00 42.80 0.0 11.8 0.00 0.00
2:20 315 5 5 1022.00 42.80 0.0 11.8 0.00 0.00
2:25 315 5 5 1022.00 42.80 0.0 11.9 0.00 0.00
2:30 315 5 5 1023.00 42.80 0.0 12.1 0.00 0.00
2:35 315 5 5 1023.00 42.80 0.0 12.3 0.00 0.00
2:40 315 5 5 1023.00 42.80 0.0 12.4 0.00 0.00
2:45 315 5 5 1023.00 42.80 0.0 12.4 0.00 0.00
2:50 315 5 5 1023.00 42.80 0.0 12.5 0.00 0.00
2:55 315 5 5 1023.00 42.80 0.0 12.5 0.00 0.00
3:00 315 5 5 1023.00 42.80 0.0 12.5 0.00 0.00
3:05 315 5 5 1023.00 42.80 0.0 12.4 0.00 0.00
3:10 315 5 5 1023.00 42.80 0.0 12.5 0.00 0.00
3:15 315 5 5 1023.00 42.80 0.0 12.6 0.00 0.00
3:20 315 5 5 1023.00 42.80 0.0 12.6 0.00 0.00
3:25 315 5 5 1023.00 42.80 0.0 12.5 0.00 0.00
3:30 315 5 5 1023.00 42.80 0.0 12.2 0.00 0.00
3:35 315 5 5 1023.00 42.80 0.0 12.3 0.00 0.00
3:40 315 5 5 1023.00 42.80 0.0 12.3 0.00 0.00
3:45 315 5 5 1023.00 42.80 0.0 12.4 0.00 0.00
3:50 315 5 5 1023.00 42.80 0.0 12.6 0.00 0.00
3:55 315 5 5 1023.00 42.80 0.0 12.5 0.00 0.00
4:00 315 5 5 1023.00 42.80 0.0 12.5 0.00 0.00
4:05 315 5 5 1023.00 42.80 0.0 12.4 0.00 0.00
4:10 315 5 5 1023.00 42.80 0.0 12.4 0.00 0.00
4:15 315 5 5 1023.00 42.80 0.0 12.4 0.00 0.00
4:20 315 5 5 1023.00 42.80 0.0 12.5 0.00 0.00
4:25 315 5 5 1023.00 42.80 0.0 12.5 0.00 0.00
4:30 315 5 5 1023.00 42.80 0.0 12.5 0.00 0.00
4:35 315 5 5 1023.00 42.80 0.0 12.5 0.00 0.00
4:40 315 5 5 1023.00 42.80 0.0 12.5 0.00 0.00
Yesterday's Data File
5/2/11
Time Wind Dir Wind Spd Wind Gust Raw Barom Tot Rain UV Wind Chill DailyRain 24HrRain
° km/hr km/hr hPa mm °C mm mm
0:00 292 2 2 1026.00 42.80 0.0 9.5 0.00 0.00
0:05 68 0 0 1026.00 42.80 0.0 9.6 0.00 0.00
0:10 68 0 0 1026.00 42.80 0.0 9.7 0.00 0.00
0:15 68 0 0 1026.00 42.80 0.0 9.8 0.00 0.00
0:20 68 0 0 1026.00 42.80 0.0 10.0 0.00 0.00
0:25 68 0 0 1026.00 42.80 0.0 10.1 0.00 0.00
0:30 68 0 0 1026.00 42.80 0.0 10.2 0.00 0.00
0:35 68 0 0 1026.00 42.80 0.0 10.1 0.00 0.00
0:40 68 5 5 1026.00 42.80 0.0 10.1 0.00 0.00
0:45 68 4 4 1027.00 42.80 0.0 10.1 0.00 0.00
0:50 68 4 4 1027.00 42.80 0.0 9.9 0.00 0.00
0:55 68 4 4 1027.00 42.80 0.0 9.9 0.00 0.00
1:00 68 4 4 1026.00 42.80 0.0 9.9 0.00 0.00
1:05 22 0 0 1026.00 42.80 0.0 9.9 0.00 0.00
1:10 22 0 0 1026.00 42.80 0.0 10.0 0.00 0.00
1:15 22 0 0 1026.00 42.80 0.0 9.8 0.00 0.00
1:20 22 0 0 1026.00 42.80 0.0 9.9 0.00 0.00
1:25 22 0 0 1026.00 42.80 0.0 9.9 0.00 0.00
1:30 22 0 0 1026.00 42.80 0.0 9.8 0.00 0.00
1:35 22 0 0 1026.00 42.80 0.0 9.8 0.00 0.00
1:40 22 0 0 1026.00 42.80 0.0 9.8 0.00 0.00
1:45 68 0 0 1026.00 42.80 0.0 9.9 0.00 0.00
1:50 68 0 0 1026.00 42.80 0.0 9.9 0.00 0.00
1:55 68 0 0 1026.00 42.80 0.0 9.9 0.00 0.00
2:00 68 0 0 1026.00 42.80 0.0 9.8 0.00 0.00
2:05 315 0 0 1026.00 42.80 0.0 9.8 0.00 0.00
2:10 338 0 0 1026.00 42.80 0.0 9.7 0.00 0.00
2:15 338 0 0 1026.00 42.80 0.0 9.6 0.00 0.00
2:20 22 0 0 1026.00 42.80 0.0 9.5 0.00 0.00
2:25 22 0 0 1026.00 42.80 0.0 9.5 0.00 0.00
2:30 22 0 0 1026.00 42.80 0.0 9.8 0.00 0.00
2:35 22 0 0 1026.00 42.80 0.0 9.9 0.00 0.00
2:40 22 0 0 1026.00 42.80 0.0 9.8 0.00 0.00
2:45 22 0 0 1026.00 42.80 0.0 9.9 0.00 0.00
2:50 22 0 0 1026.00 42.80 0.0 9.8 0.00 0.00
2:55 22 0 0 1026.00 42.80 0.0 9.7 0.00 0.00
3:00 22 0 0 1026.00 42.80 0.0 9.7 0.00 0.00
3:05 22 0 0 1026.00 42.80 0.0 9.9 0.00 0.00
3:10 22 0 0 1026.00 42.80 0.0 9.9 0.00 0.00
3:15 45 2 2 1026.00 42.80 0.0 9.9 0.00 0.00
3:20 45 2 2 1026.00 42.80 0.0 10.0 0.00 0.00
3:25 68 0 0 1026.00 42.80 0.0 10.0 0.00 0.00
3:30 68 0 0 1026.00 42.80 0.0 9.9 0.00 0.00
3:35 68 0 0 1026.00 42.80 0.0 10.0 0.00 0.00
3:40 68 0 0 1026.00 42.80 0.0 10.0 0.00 0.00
3:45 22 0 0 1025.00 42.80 0.0 10.0 0.00 0.00
3:50 22 0 0 1025.00 42.80 0.0 10.0 0.00 0.00
3:55 22 0 0 1025.00 42.80 0.0 10.0 0.00 0.00
4:00 22 0 0 1025.00 42.80 0.0 10.0 0.00 0.00
4:05 22 0 0 1025.00 42.80 0.0 10.0 0.00 0.00
4:10 22 0 0 1025.00 42.80 0.0 10.1 0.00 0.00
4:15 22 0 0 1025.00 42.80 0.0 10.1 0.00 0.00
4:20 22 0 0 1025.00 42.80 0.0 10.1 0.00 0.00
4:25 22 0 0 1025.00 42.80 0.0 10.1 0.00 0.00
4:30 22 0 0 1025.00 42.80 0.0 10.1 0.00 0.00
4:35 22 0 0 1025.00 42.80 0.0 10.1 0.00 0.00
4:40 22 0 0 1025.00 42.80 0.0 10.0 0.00 0.00
4:45 22 0 0 1025.00 42.80 0.0 9.8 0.00 0.00
4:50 22 0 0 1025.00 42.80 0.0 9.8 0.00 0.00
4:55 22 0 0 1025.00 42.80 0.0 10.0 0.00 0.00
5:00 338 0 0 1025.00 42.80 0.0 10.0 0.00 0.00
5:05 338 0 0 1025.00 42.80 0.0 9.9 0.00 0.00
5:10 22 0 0 1025.00 42.80 0.0 9.5 0.00 0.00
5:15 68 0 0 1025.00 42.80 0.0 9.6 0.00 0.00
5:20 68 0 0 1025.00 42.80 0.0 9.6 0.00 0.00
5:25 68 0 0 1025.00 42.80 0.0 9.6 0.00 0.00
5:30 68 0 0 1025.00 42.80 0.0 9.5 0.00 0.00
5:35 68 0 0 1025.00 42.80 0.0 9.4 0.00 0.00
5:40 68 0 0 1025.00 42.80 0.0 9.2 0.00 0.00
5:45 68 0 0 1025.00 42.80 0.0 9.0 0.00 0.00
5:50 68 0 0 1025.00 42.80 0.0 9.0 0.00 0.00
5:55 68 0 0 1025.00 42.80 0.0 9.0 0.00 0.00
6:00 22 8 8 1024.00 42.80 0.0 9.1 0.00 0.00
6:05 0 10 10 1024.00 42.80 0.0 7.1 0.00 0.00
6:10 22 13 13 1024.00 42.80 0.0 6.4 0.00 0.00
6:15 0 10 10 1025.00 42.80 0.0 7.2 0.00 0.00
6:20 0 10 10 1025.00 42.80 0.0 7.2 0.00 0.00
6:25 22 11 11 1025.00 42.80 0.0 7.1 0.00 0.00
6:30 22 9 9 1025.00 42.80 0.0 7.9 0.00 0.00
6:35 0 7 7 1025.00 42.80 0.0 9.1 0.00 0.00
6:40 0 7 7 1025.00 42.80 0.0 9.0 0.00 0.00
6:45 0 6 6 1025.00 42.80 0.0 8.9 0.00 0.00
6:50 22 10 10 1025.00 42.80 0.0 6.7 0.00 0.00
6:55 22 10 10 1025.00 42.80 0.0 6.8 0.00 0.00
7:00 22 6 6 1024.00 42.80 0.0 8.9 0.00 0.00
7:05 22 9 9 1024.00 42.80 0.0 7.6 0.00 0.00
7:10 22 9 9 1024.00 42.80 0.0 7.6 0.00 0.00
7:15 22 9 9 1025.00 42.80 0.0 7.6 0.00 0.00
7:20 22 7 7 1025.00 42.80 0.0 8.9 0.00 0.00
7:25 22 6 6 1025.00 42.80 0.0 8.9 0.00 0.00
7:30 338 4 4 1025.00 42.80 0.0 9.1 0.00 0.00
7:35 22 6 6 1025.00 42.80 0.0 9.2 0.00 0.00
7:40 22 6 6 1025.00 42.80 0.0 9.2 0.00 0.00
7:45 0 7 7 1025.00 42.80 0.0 9.3 0.00 0.00
7:50 0 7 7 1025.00 42.80 0.0 9.3 0.00 0.00
7:55 0 8 8 1025.00 42.80 0.0 9.3 0.00 0.00
8:00 22 9 9 1024.00 42.80 0.0 8.0 0.00 0.00
8:05 22 16 16 1024.00 42.80 0.0 4.5 0.00 0.00
8:10 22 14 14 1024.00 42.80 0.0 5.4 0.00 0.00
8:15 22 17 17 1026.00 42.80 0.0 3.9 0.00 0.00
8:20 22 16 16 1026.00 42.80 0.0 3.9 0.00 0.00
8:25 22 12 12 1026.00 42.80 0.0 6.4 0.00 0.00
8:30 22 12 12 1025.00 42.80 0.0 6.5 0.00 0.00
8:35 22 12 12 1025.00 42.80 0.0 6.4 0.00 0.00
8:40 45 12 12 1025.00 42.80 0.0 6.5 0.00 0.00
8:45 0 12 12 1026.00 42.80 0.0 6.6 0.00 0.00
8:50 22 10 10 1026.00 42.80 0.0 7.5 0.00 0.00
8:55 0 7 7 1026.00 42.80 0.0 9.8 0.00 0.00
9:00 22 9 9 1026.00 42.80 0.0 8.6 0.00 0.00
9:05 338 10 10 1026.00 42.80 0.0 7.9 0.00 0.00
9:10 45 10 10 1026.00 42.80 0.0 8.0 0.00 0.00
9:15 22 9 9 1026.00 42.80 0.0 8.8 0.00 0.00
9:20 338 8 8 1026.00 42.80 0.0 10.2 0.00 0.00
9:25 0 10 10 1026.00 42.80 0.0 8.2 0.00 0.00
9:30 0 10 10 1026.00 42.80 0.0 8.3 0.00 0.00
9:35 22 10 10 1026.00 42.80 0.0 8.5 0.00 0.00
9:40 22 10 10 1026.00 42.80 0.0 8.7 0.00 0.00
9:45 22 10 10 1027.00 42.80 0.0 10.9 0.00 0.00
9:50 22 10 10 1026.00 42.80 0.0 9.1 0.00 0.00
9:55 90 6 6 1026.00 42.80 0.0 11.4 0.00 0.00
10:00 68 6 6 1027.00 42.80 0.0 11.7 0.00 0.00
10:05 90 7 7 1027.00 42.80 0.0 11.8 0.00 0.00
10:10 90 6 6 1027.00 42.80 0.0 12.1 0.00 0.00
10:15 90 6 6 1027.00 42.80 0.0 12.3 0.00 0.00
10:20 90 6 6 1027.00 42.80 0.0 12.5 0.00 0.00
10:25 90 6 6 1027.00 42.80 0.0 12.6 0.00 0.00
10:30 90 7 7 1027.00 42.80 0.0 12.6 0.00 0.00
10:35 90 7 7 1027.00 42.80 0.0 12.8 0.00 0.00
10:40 90 7 7 1027.00 42.80 0.0 12.9 0.00 0.00
10:45 90 7 7 1027.00 42.80 0.0 12.9 0.00 0.00
10:50 90 7 7 1027.00 42.80 0.0 12.9 0.00 0.00
10:55 90 7 7 1027.00 42.80 0.0 12.9 0.00 0.00
11:00 90 7 7 1027.00 42.80 0.0 13.0 0.00 0.00
11:05 90 7 7 1027.00 42.80 0.0 13.4 0.00 0.00
11:10 90 7 7 1027.00 42.80 0.0 13.8 0.00 0.00
11:15 90 7 7 1027.00 42.80 0.0 13.9 0.00 0.00
11:20 90 7 7 1027.00 42.80 0.0 14.0 0.00 0.00
11:25 90 7 7 1027.00 42.80 0.0 14.0 0.00 0.00
11:30 90 7 7 1027.00 42.80 0.0 14.1 0.00 0.00
11:35 90 7 7 1027.00 42.80 0.0 14.4 0.00 0.00
11:40 90 7 7 1027.00 42.80 0.0 14.7 0.00 0.00
11:45 90 7 7 1027.00 42.80 0.0 14.6 0.00 0.00
11:50 90 7 7 1027.00 42.80 0.0 14.4 0.00 0.00
11:55 90 7 7 1027.00 42.80 0.0 14.4 0.00 0.00
12:00 90 7 7 1026.00 42.80 0.0 14.2 0.00 0.00
12:05 90 7 7 1026.00 42.80 0.0 14.2 0.00 0.00
12:10 90 7 7 1026.00 42.80 0.0 14.6 0.00 0.00
12:15 90 7 7 1026.00 42.80 0.0 14.7 0.00 0.00
12:20 90 7 7 1026.00 42.80 0.0 15.0 0.00 0.00
12:25 90 7 7 1026.00 42.80 0.0 15.3 0.00 0.00
12:30 90 7 7 1026.00 42.80 0.0 15.3 0.00 0.00
12:35 90 7 7 1026.00 42.80 0.0 15.3 0.00 0.00
12:40 90 7 7 1026.00 42.80 0.0 15.5 0.00 0.00
12:45 90 7 7 1026.00 42.80 0.0 15.6 0.00 0.00
12:50 90 7 7 1026.00 42.80 0.0 15.4 0.00 0.00
12:55 90 7 7 1026.00 42.80 0.0 15.2 0.00 0.00
13:00 90 7 7 1026.00 42.80 0.0 14.5 0.00 0.00
13:05 90 7 7 1026.00 42.80 0.0 14.5 0.00 0.00
13:10 90 7 7 1026.00 42.80 0.0 14.5 0.00 0.00
13:15 90 7 7 1026.00 42.80 0.0 14.5 0.00 0.00
13:20 90 7 7 1026.00 42.80 0.0 14.4 0.00 0.00
13:25 90 7 7 1026.00 42.80 0.0 14.4 0.00 0.00
13:30 90 7 7 1025.00 42.80 0.0 14.5 0.00 0.00
13:35 90 7 7 1025.00 42.80 0.0 14.7 0.00 0.00
13:40 90 7 7 1025.00 42.80 0.0 14.7 0.00 0.00
13:45 90 7 7 1025.00 42.80 0.0 14.9 0.00 0.00
13:50 90 7 7 1025.00 42.80 0.0 15.0 0.00 0.00
13:55 90 7 7 1025.00 42.80 0.0 15.2 0.00 0.00
14:00 90 7 7 1025.00 42.80 0.0 15.2 0.00 0.00
14:05 90 7 7 1025.00 42.80 0.0 15.2 0.00 0.00
14:10 90 7 7 1025.00 42.80 0.0 15.3 0.00 0.00
14:15 270 4 4 1025.00 42.80 0.0 15.5 0.00 0.00
14:20 270 4 4 1025.00 42.80 0.0 15.6 0.00 0.00
14:25 270 4 4 1025.00 42.80 0.0 15.6 0.00 0.00
14:30 270 4 4 1025.00 42.80 0.0 15.9 0.00 0.00
14:35 270 4 4 1025.00 42.80 0.0 16.0 0.00 0.00
14:40 270 4 4 1025.00 42.80 0.0 16.1 0.00 0.00
14:45 270 4 4 1024.00 42.80 0.0 16.3 0.00 0.00
14:50 270 4 4 1024.00 42.80 0.0 16.2 0.00 0.00
14:55 270 4 4 1024.00 42.80 0.0 16.3 0.00 0.00
15:00 270 4 4 1024.00 42.80 0.0 16.1 0.00 0.00
15:05 270 4 4 1024.00 42.80 0.0 16.2 0.00 0.00
15:10 270 4 4 1024.00 42.80 0.0 16.0 0.00 0.00
15:15 270 4 4 1024.00 42.80 0.0 15.7 0.00 0.00
15:20 270 4 4 1024.00 42.80 0.0 15.5 0.00 0.00
15:25 270 4 4 1024.00 42.80 0.0 15.6 0.00 0.00
15:30 270 4 4 1024.00 42.80 0.0 15.7 0.00 0.00
15:35 270 4 4 1024.00 42.80 0.0 15.6 0.00 0.00
15:40 270 4 4 1024.00 42.80 0.0 15.4 0.00 0.00
15:45 270 4 4 1024.00 42.80 0.0 15.5 0.00 0.00
15:50 270 4 4 1024.00 42.80 0.0 15.3 0.00 0.00
15:55 270 4 4 1024.00 42.80 0.0 15.2 0.00 0.00
16:00 270 4 4 1024.00 42.80 0.0 15.2 0.00 0.00
16:05 248 5 5 1024.00 42.80 0.0 15.2 0.00 0.00
16:10 248 5 5 1024.00 42.80 0.0 15.3 0.00 0.00
16:15 202 0 0 1024.00 42.80 0.0 15.2 0.00 0.00
16:20 202 0 0 1024.00 42.80 0.0 15.3 0.00 0.00
16:25 202 0 0 1024.00 42.80 0.0 15.2 0.00 0.00
16:30 202 0 0 1023.00 42.80 0.0 15.1 0.00 0.00
16:35 202 0 0 1023.00 42.80 0.0 15.0 0.00 0.00
16:40 202 0 0 1023.00 42.80 0.0 15.1 0.00 0.00
16:45 202 0 0 1024.00 42.80 0.0 14.9 0.00 0.00
16:50 202 0 0 1024.00 42.80 0.0 14.9 0.00 0.00
16:55 202 0 0 1024.00 42.80 0.0 14.8 0.00 0.00
17:00 202 0 0 1024.00 42.80 0.0 14.7 0.00 0.00
17:05 202 0 0 1024.00 42.80 0.0 14.6 0.00 0.00
17:10 202 0 0 1024.00 42.80 0.0 14.5 0.00 0.00
17:15 202 0 0 1024.00 42.80 0.0 14.6 0.00 0.00
17:20 202 0 0 1024.00 42.80 0.0 14.7 0.00 0.00
17:25 202 0 0 1024.00 42.80 0.0 14.5 0.00 0.00
17:30 202 0 0 1023.00 42.80 0.0 14.4 0.00 0.00
17:35 202 0 0 1023.00 42.80 0.0 14.5 0.00 0.00
17:40 202 0 0 1023.00 42.80 0.0 14.6 0.00 0.00
17:45 202 0 0 1024.00 42.80 0.0 14.5 0.00 0.00
17:50 202 0 0 1024.00 42.80 0.0 14.5 0.00 0.00
17:55 202 0 0 1024.00 42.80 0.0 14.5 0.00 0.00
18:00 202 0 0 1024.00 42.80 0.0 14.5 0.00 0.00
18:05 202 0 0 1024.00 42.80 0.0 14.4 0.00 0.00
18:10 315 3 3 1024.00 42.80 0.0 14.3 0.00 0.00
18:15 270 6 6 1024.00 42.80 0.0 14.1 0.00 0.00
18:20 292 0 0 1024.00 42.80 0.0 14.0 0.00 0.00
18:25 270 0 0 1024.00 42.80 0.0 13.9 0.00 0.00
18:30 270 0 0 1024.00 42.80 0.0 13.8 0.00 0.00
18:35 270 0 0 1024.00 42.80 0.0 13.7 0.00 0.00
18:40 270 0 0 1024.00 42.80 0.0 13.7 0.00 0.00
18:45 270 0 0 1025.00 42.80 0.0 13.6 0.00 0.00
18:50 270 0 0 1025.00 42.80 0.0 13.6 0.00 0.00
18:55 292 8 8 1025.00 42.80 0.0 13.5 0.00 0.00
19:00 292 8 8 1025.00 42.80 0.0 13.5 0.00 0.00
19:05 292 8 8 1025.00 42.80 0.0 13.4 0.00 0.00
19:10 270 0 0 1025.00 42.80 0.0 13.4 0.00 0.00
19:15 270 0 0 1025.00 42.80 0.0 13.3 0.00 0.00
19:20 315 0 0 1025.00 42.80 0.0 13.3 0.00 0.00
19:25 292 5 5 1025.00 42.80 0.0 13.2 0.00 0.00
19:30 292 5 5 1025.00 42.80 0.0 13.1 0.00 0.00
19:35 292 3 3 1025.00 42.80 0.0 13.1 0.00 0.00
19:40 292 3 3 1025.00 42.80 0.0 13.1 0.00 0.00
19:45 270 4 4 1025.00 42.80 0.0 13.0 0.00 0.00
19:50 248 0 0 1025.00 42.80 0.0 13.0 0.00 0.00
19:55 248 0 0 1025.00 42.80 0.0 13.0 0.00 0.00
20:00 0 0 0 1025.00 42.80 0.0 12.8 0.00 0.00
20:05 292 0 0 1025.00 42.80 0.0 12.8 0.00 0.00
20:10 292 0 0 1025.00 42.80 0.0 12.7 0.00 0.00
20:15 315 2 2 1025.00 42.80 0.0 12.7 0.00 0.00
20:20 338 3 3 1025.00 42.80 0.0 12.6 0.00 0.00
20:25 338 5 5 1025.00 42.80 0.0 12.5 0.00 0.00
20:30 315 5 5 1025.00 42.80 0.0 12.5 0.00 0.00
20:35 315 5 5 1025.00 42.80 0.0 12.5 0.00 0.00
20:40 315 5 5 1025.00 42.80 0.0 12.5 0.00 0.00
20:45 315 5 5 1025.00 42.80 0.0 12.4 0.00 0.00
20:50 315 5 5 1025.00 42.80 0.0 12.5 0.00 0.00
20:55 315 5 5 1025.00 42.80 0.0 12.5 0.00 0.00
21:00 315 5 5 1025.00 42.80 0.0 12.4 0.00 0.00
21:05 315 5 5 1025.00 42.80 0.0 12.4 0.00 0.00
21:10 315 5 5 1025.00 42.80 0.0 12.3 0.00 0.00
21:15 315 5 5 1025.00 42.80 0.0 12.2 0.00 0.00
21:20 315 5 5 1025.00 42.80 0.0 12.2 0.00 0.00
21:25 315 5 5 1025.00 42.80 0.0 12.1 0.00 0.00
21:30 315 5 5 1025.00 42.80 0.0 12.0 0.00 0.00
21:35 315 5 5 1025.00 42.80 0.0 11.9 0.00 0.00
21:40 315 5 5 1025.00 42.80 0.0 11.8 0.00 0.00
21:45 315 5 5 1025.00 42.80 0.0 11.8 0.00 0.00
21:50 315 5 5 1025.00 42.80 0.0 11.7 0.00 0.00
21:55 315 5 5 1025.00 42.80 0.0 11.7 0.00 0.00
22:00 315 5 5 1025.00 42.80 0.0 11.5 0.00 0.00
22:05 315 5 5 1025.00 42.80 0.0 11.4 0.00 0.00
22:10 315 5 5 1025.00 42.80 0.0 11.3 0.00 0.00
22:15 315 5 5 1025.00 42.80 0.0 11.1 0.00 0.00
22:20 315 5 5 1025.00 42.80 0.0 11.0 0.00 0.00
22:25 315 5 5 1025.00 42.80 0.0 10.9 0.00 0.00
22:30 315 5 5 1024.00 42.80 0.0 10.9 0.00 0.00
22:35 315 5 5 1024.00 42.80 0.0 10.9 0.00 0.00
22:40 315 5 5 1024.00 42.80 0.0 10.9 0.00 0.00
22:45 315 5 5 1024.00 42.80 0.0 11.0 0.00 0.00
22:50 315 5 5 1024.00 42.80 0.0 11.2 0.00 0.00
22:55 315 5 5 1024.00 42.80 0.0 11.5 0.00 0.00
23:00 315 5 5 1024.00 42.80 0.0 11.6 0.00 0.00
23:05 315 5 5 1024.00 42.80 0.0 11.6 0.00 0.00
23:10 315 5 5 1024.00 42.80 0.0 11.5 0.00 0.00
23:15 315 5 5 1024.00 42.80 0.0 11.3 0.00 0.00
23:20 315 5 5 1024.00 42.80 0.0 11.3 0.00 0.00
23:25 315 5 5 1024.00 42.80 0.0 11.4 0.00 0.00
23:30 315 5 5 1024.00 42.80 0.0 11.5 0.00 0.00
23:35 315 5 5 1024.00 42.80 0.0 11.6 0.00 0.00
23:40 315 5 5 1024.00 42.80 0.0 11.7 0.00 0.00
23:45 315 5 5 1024.00 42.80 0.0 11.7 0.00 0.00
23:50 315 5 5 1024.00 42.80 0.0 11.7 0.00 0.00
23:55 315 5 5 1024.00 42.80 0.0 11.7 0.00 0.00
Updated Automatically by Ambient Weather's
Virtual Weather Station V14.01
©All rights
reserved. Unauthorized duplication or distribution is prohibited
Never base important decisions on this
or any weather information obtained from the Internet